<?xml version="1.0" encoding="UTF-8" standalone="no" ?>
<gpx xmlns="http://www.topografix.com/GPX/1/1" xmlns:xsi="http://www.w3.org/2001/XMLSchema-instance" xsi:schemaLocation="http://www.topografix.com/GPX/1/1 http://www.topografix.com/GPX/1/1/gpx.xsd" version="1.1" creator="VisuGPX - https://www.visugpx.com">
  <metadata>
    <name>Traversée chartreuse jour 2</name>
    <desc><![CDATA[Traversée chartreuse jour 2]]></desc>
  </metadata>
  <trk>
    <name><![CDATA[TRAVERSEE CHARTREUSE 002]]></name>
    <trkseg>
      <trkpt lat="45.48212" lon="5.89931">
        <ele>1180.16</ele>
        <time>2013-07-14T04:25:44Z</time>
      </trkpt>
      <trkpt lat="45.48233" lon="5.89917">
        <ele>1178.23</ele>
        <time>2013-07-14T04:26:00Z</time>
      </trkpt>
      <trkpt lat="45.48238" lon="5.89914">
        <ele>1178.23</ele>
        <time>2013-07-14T04:26:04Z</time>
      </trkpt>
      <trkpt lat="45.48262" lon="5.89901">
        <ele>1179.67</ele>
        <time>2013-07-14T04:26:20Z</time>
      </trkpt>
      <trkpt lat="45.48279" lon="5.89885">
        <ele>1180.16</ele>
        <time>2013-07-14T04:26:34Z</time>
      </trkpt>
      <trkpt lat="45.48298" lon="5.89868">
        <ele>1179.67</ele>
        <time>2013-07-14T04:26:50Z</time>
      </trkpt>
      <trkpt lat="45.48317" lon="5.89848">
        <ele>1180.64</ele>
        <time>2013-07-14T04:27:06Z</time>
      </trkpt>
      <trkpt lat="45.48332" lon="5.89829">
        <ele>1180.64</ele>
        <time>2013-07-14T04:27:20Z</time>
      </trkpt>
      <trkpt lat="45.48349" lon="5.89813">
        <ele>1183.04</ele>
        <time>2013-07-14T04:27:36Z</time>
      </trkpt>
      <trkpt lat="45.48358" lon="5.89807">
        <ele>1184.48</ele>
        <time>2013-07-14T04:27:43Z</time>
      </trkpt>
      <trkpt lat="45.48378" lon="5.89789">
        <ele>1183.52</ele>
        <time>2013-07-14T04:27:59Z</time>
      </trkpt>
      <trkpt lat="45.48389" lon="5.89785">
        <ele>1183.52</ele>
        <time>2013-07-14T04:28:07Z</time>
      </trkpt>
      <trkpt lat="45.48404" lon="5.89754">
        <ele>1185.44</ele>
        <time>2013-07-14T04:28:25Z</time>
      </trkpt>
      <trkpt lat="45.48413" lon="5.89731">
        <ele>1187.37</ele>
        <time>2013-07-14T04:28:38Z</time>
      </trkpt>
      <trkpt lat="45.48419" lon="5.89712">
        <ele>1187.85</ele>
        <time>2013-07-14T04:28:50Z</time>
      </trkpt>
      <trkpt lat="45.4843" lon="5.89687">
        <ele>1189.77</ele>
        <time>2013-07-14T04:29:06Z</time>
      </trkpt>
      <trkpt lat="45.48442" lon="5.89659">
        <ele>1189.29</ele>
        <time>2013-07-14T04:29:24Z</time>
      </trkpt>
      <trkpt lat="45.48447" lon="5.89655">
        <ele>1189.77</ele>
        <time>2013-07-14T04:29:38Z</time>
      </trkpt>
      <trkpt lat="45.48449" lon="5.89654">
        <ele>1189.77</ele>
        <time>2013-07-14T04:29:40Z</time>
      </trkpt>
      <trkpt lat="45.48454" lon="5.8965">
        <ele>1190.25</ele>
        <time>2013-07-14T04:29:44Z</time>
      </trkpt>
      <trkpt lat="45.48467" lon="5.89632">
        <ele>1190.73</ele>
        <time>2013-07-14T04:29:58Z</time>
      </trkpt>
      <trkpt lat="45.48481" lon="5.8961">
        <ele>1190.73</ele>
        <time>2013-07-14T04:30:13Z</time>
      </trkpt>
      <trkpt lat="45.4848" lon="5.89608">
        <ele>1190.73</ele>
        <time>2013-07-14T04:30:17Z</time>
      </trkpt>
      <trkpt lat="45.48483" lon="5.89579">
        <ele>1188.33</ele>
        <time>2013-07-14T04:30:36Z</time>
      </trkpt>
      <trkpt lat="45.48482" lon="5.8958">
        <ele>1188.33</ele>
        <time>2013-07-14T04:30:57Z</time>
      </trkpt>
      <trkpt lat="45.48481" lon="5.89576">
        <ele>1188.33</ele>
        <time>2013-07-14T04:31:21Z</time>
      </trkpt>
      <trkpt lat="45.48487" lon="5.89573">
        <ele>1191.69</ele>
        <time>2013-07-14T04:31:41Z</time>
      </trkpt>
      <trkpt lat="45.48486" lon="5.89574">
        <ele>1197.94</ele>
        <time>2013-07-14T04:32:07Z</time>
      </trkpt>
      <trkpt lat="45.48486" lon="5.89574">
        <ele>1198.9</ele>
        <time>2013-07-14T04:32:26Z</time>
      </trkpt>
      <trkpt lat="45.48489" lon="5.89579">
        <ele>1199.86</ele>
        <time>2013-07-14T04:32:47Z</time>
      </trkpt>
      <trkpt lat="45.48489" lon="5.89579">
        <ele>1200.34</ele>
        <time>2013-07-14T04:33:12Z</time>
      </trkpt>
      <trkpt lat="45.48485" lon="5.8958">
        <ele>1201.79</ele>
        <time>2013-07-14T04:33:38Z</time>
      </trkpt>
      <trkpt lat="45.48485" lon="5.89586">
        <ele>1201.79</ele>
        <time>2013-07-14T04:34:04Z</time>
      </trkpt>
      <trkpt lat="45.48487" lon="5.89586">
        <ele>1202.27</ele>
        <time>2013-07-14T04:34:06Z</time>
      </trkpt>
      <trkpt lat="45.48494" lon="5.89585">
        <ele>1210.44</ele>
        <time>2013-07-14T04:34:22Z</time>
      </trkpt>
      <trkpt lat="45.48495" lon="5.89584">
        <ele>1211.4</ele>
        <time>2013-07-14T04:34:44Z</time>
      </trkpt>
      <trkpt lat="45.48501" lon="5.89579">
        <ele>1211.88</ele>
        <time>2013-07-14T04:35:04Z</time>
      </trkpt>
      <trkpt lat="45.48518" lon="5.89561">
        <ele>1213.32</ele>
        <time>2013-07-14T04:35:22Z</time>
      </trkpt>
      <trkpt lat="45.48529" lon="5.89555">
        <ele>1217.65</ele>
        <time>2013-07-14T04:35:38Z</time>
      </trkpt>
      <trkpt lat="45.48545" lon="5.89548">
        <ele>1222.45</ele>
        <time>2013-07-14T04:35:56Z</time>
      </trkpt>
      <trkpt lat="45.48559" lon="5.89543">
        <ele>1227.74</ele>
        <time>2013-07-14T04:36:11Z</time>
      </trkpt>
      <trkpt lat="45.48576" lon="5.89537">
        <ele>1231.59</ele>
        <time>2013-07-14T04:36:28Z</time>
      </trkpt>
      <trkpt lat="45.48589" lon="5.89532">
        <ele>1235.43</ele>
        <time>2013-07-14T04:36:45Z</time>
      </trkpt>
      <trkpt lat="45.48607" lon="5.89518">
        <ele>1240.24</ele>
        <time>2013-07-14T04:37:03Z</time>
      </trkpt>
      <trkpt lat="45.48625" lon="5.89502">
        <ele>1246.97</ele>
        <time>2013-07-14T04:37:22Z</time>
      </trkpt>
      <trkpt lat="45.48631" lon="5.89495">
        <ele>1253.7</ele>
        <time>2013-07-14T04:37:39Z</time>
      </trkpt>
      <trkpt lat="45.48633" lon="5.89488">
        <ele>1258.5</ele>
        <time>2013-07-14T04:37:58Z</time>
      </trkpt>
      <trkpt lat="45.48644" lon="5.89475">
        <ele>1262.35</ele>
        <time>2013-07-14T04:38:15Z</time>
      </trkpt>
      <trkpt lat="45.48652" lon="5.8947">
        <ele>1265.71</ele>
        <time>2013-07-14T04:38:34Z</time>
      </trkpt>
      <trkpt lat="45.48659" lon="5.89472">
        <ele>1268.12</ele>
        <time>2013-07-14T04:38:52Z</time>
      </trkpt>
      <trkpt lat="45.48675" lon="5.89482">
        <ele>1271.48</ele>
        <time>2013-07-14T04:39:13Z</time>
      </trkpt>
      <trkpt lat="45.48695" lon="5.89474">
        <ele>1275.81</ele>
        <time>2013-07-14T04:39:31Z</time>
      </trkpt>
      <trkpt lat="45.48707" lon="5.89469">
        <ele>1282.06</ele>
        <time>2013-07-14T04:39:50Z</time>
      </trkpt>
      <trkpt lat="45.4871" lon="5.89467">
        <ele>1283.02</ele>
        <time>2013-07-14T04:40:12Z</time>
      </trkpt>
      <trkpt lat="45.48725" lon="5.89467">
        <ele>1285.9</ele>
        <time>2013-07-14T04:40:28Z</time>
      </trkpt>
      <trkpt lat="45.4874" lon="5.89469">
        <ele>1290.71</ele>
        <time>2013-07-14T04:40:43Z</time>
      </trkpt>
      <trkpt lat="45.48751" lon="5.89469">
        <ele>1292.63</ele>
        <time>2013-07-14T04:40:59Z</time>
      </trkpt>
      <trkpt lat="45.48768" lon="5.89478">
        <ele>1292.15</ele>
        <time>2013-07-14T04:41:16Z</time>
      </trkpt>
      <trkpt lat="45.4879" lon="5.89494">
        <ele>1290.23</ele>
        <time>2013-07-14T04:41:32Z</time>
      </trkpt>
      <trkpt lat="45.48799" lon="5.89502">
        <ele>1289.27</ele>
        <time>2013-07-14T04:41:40Z</time>
      </trkpt>
      <trkpt lat="45.48821" lon="5.8952">
        <ele>1285.9</ele>
        <time>2013-07-14T04:42:00Z</time>
      </trkpt>
      <trkpt lat="45.48839" lon="5.89531">
        <ele>1286.38</ele>
        <time>2013-07-14T04:42:17Z</time>
      </trkpt>
      <trkpt lat="45.48852" lon="5.89535">
        <ele>1287.34</ele>
        <time>2013-07-14T04:42:37Z</time>
      </trkpt>
      <trkpt lat="45.48871" lon="5.89537">
        <ele>1288.3</ele>
        <time>2013-07-14T04:42:54Z</time>
      </trkpt>
      <trkpt lat="45.48893" lon="5.89535">
        <ele>1291.67</ele>
        <time>2013-07-14T04:43:13Z</time>
      </trkpt>
      <trkpt lat="45.48904" lon="5.8953">
        <ele>1294.55</ele>
        <time>2013-07-14T04:43:29Z</time>
      </trkpt>
      <trkpt lat="45.48919" lon="5.89513">
        <ele>1300.8</ele>
        <time>2013-07-14T04:43:47Z</time>
      </trkpt>
      <trkpt lat="45.48927" lon="5.89509">
        <ele>1304.17</ele>
        <time>2013-07-14T04:44:08Z</time>
      </trkpt>
      <trkpt lat="45.48951" lon="5.89501">
        <ele>1308.97</ele>
        <time>2013-07-14T04:44:29Z</time>
      </trkpt>
      <trkpt lat="45.4897" lon="5.89482">
        <ele>1314.74</ele>
        <time>2013-07-14T04:44:49Z</time>
      </trkpt>
      <trkpt lat="45.48972" lon="5.89479">
        <ele>1315.22</ele>
        <time>2013-07-14T04:44:52Z</time>
      </trkpt>
      <trkpt lat="45.48983" lon="5.89463">
        <ele>1322.43</ele>
        <time>2013-07-14T04:45:11Z</time>
      </trkpt>
      <trkpt lat="45.48997" lon="5.89465">
        <ele>1327.72</ele>
        <time>2013-07-14T04:45:29Z</time>
      </trkpt>
      <trkpt lat="45.49013" lon="5.89457">
        <ele>1332.04</ele>
        <time>2013-07-14T04:45:49Z</time>
      </trkpt>
      <trkpt lat="45.49018" lon="5.89452">
        <ele>1333.97</ele>
        <time>2013-07-14T04:46:13Z</time>
      </trkpt>
      <trkpt lat="45.49037" lon="5.8944">
        <ele>1338.77</ele>
        <time>2013-07-14T04:46:33Z</time>
      </trkpt>
      <trkpt lat="45.4904" lon="5.89438">
        <ele>1339.73</ele>
        <time>2013-07-14T04:46:37Z</time>
      </trkpt>
      <trkpt lat="45.4906" lon="5.89429">
        <ele>1342.14</ele>
        <time>2013-07-14T04:46:56Z</time>
      </trkpt>
      <trkpt lat="45.49084" lon="5.89419">
        <ele>1343.58</ele>
        <time>2013-07-14T04:47:15Z</time>
      </trkpt>
      <trkpt lat="45.491" lon="5.89415">
        <ele>1345.98</ele>
        <time>2013-07-14T04:47:35Z</time>
      </trkpt>
      <trkpt lat="45.49116" lon="5.89413">
        <ele>1348.87</ele>
        <time>2013-07-14T04:47:53Z</time>
      </trkpt>
      <trkpt lat="45.49129" lon="5.89409">
        <ele>1351.27</ele>
        <time>2013-07-14T04:48:12Z</time>
      </trkpt>
      <trkpt lat="45.49148" lon="5.89404">
        <ele>1354.63</ele>
        <time>2013-07-14T04:48:31Z</time>
      </trkpt>
      <trkpt lat="45.49166" lon="5.894">
        <ele>1358.48</ele>
        <time>2013-07-14T04:48:47Z</time>
      </trkpt>
      <trkpt lat="45.49184" lon="5.89393">
        <ele>1362.33</ele>
        <time>2013-07-14T04:49:08Z</time>
      </trkpt>
      <trkpt lat="45.49196" lon="5.89392">
        <ele>1364.25</ele>
        <time>2013-07-14T04:49:27Z</time>
      </trkpt>
      <trkpt lat="45.4921" lon="5.89398">
        <ele>1365.21</ele>
        <time>2013-07-14T04:49:44Z</time>
      </trkpt>
      <trkpt lat="45.49213" lon="5.89401">
        <ele>1368.57</ele>
        <time>2013-07-14T04:49:50Z</time>
      </trkpt>
      <trkpt lat="45.49233" lon="5.89411">
        <ele>1368.09</ele>
        <time>2013-07-14T04:50:07Z</time>
      </trkpt>
      <trkpt lat="45.49248" lon="5.89424">
        <ele>1364.25</ele>
        <time>2013-07-14T04:50:23Z</time>
      </trkpt>
      <trkpt lat="45.49268" lon="5.89437">
        <ele>1369.54</ele>
        <time>2013-07-14T04:50:38Z</time>
      </trkpt>
      <trkpt lat="45.49288" lon="5.89458">
        <ele>1370.02</ele>
        <time>2013-07-14T04:50:59Z</time>
      </trkpt>
      <trkpt lat="45.49299" lon="5.89465">
        <ele>1369.05</ele>
        <time>2013-07-14T04:51:18Z</time>
      </trkpt>
      <trkpt lat="45.49311" lon="5.89478">
        <ele>1370.5</ele>
        <time>2013-07-14T04:51:37Z</time>
      </trkpt>
      <trkpt lat="45.4932" lon="5.89488">
        <ele>1376.26</ele>
        <time>2013-07-14T04:51:56Z</time>
      </trkpt>
      <trkpt lat="45.49327" lon="5.89492">
        <ele>1381.55</ele>
        <time>2013-07-14T04:52:14Z</time>
      </trkpt>
      <trkpt lat="45.49329" lon="5.89498">
        <ele>1384.44</ele>
        <time>2013-07-14T04:52:37Z</time>
      </trkpt>
      <trkpt lat="45.49339" lon="5.89514">
        <ele>1390.68</ele>
        <time>2013-07-14T04:52:56Z</time>
      </trkpt>
      <trkpt lat="45.49348" lon="5.89527">
        <ele>1396.93</ele>
        <time>2013-07-14T04:53:14Z</time>
      </trkpt>
      <trkpt lat="45.49362" lon="5.89537">
        <ele>1401.74</ele>
        <time>2013-07-14T04:53:33Z</time>
      </trkpt>
      <trkpt lat="45.49373" lon="5.89553">
        <ele>1405.58</ele>
        <time>2013-07-14T04:53:51Z</time>
      </trkpt>
      <trkpt lat="45.49383" lon="5.89563">
        <ele>1409.91</ele>
        <time>2013-07-14T04:54:08Z</time>
      </trkpt>
      <trkpt lat="45.49394" lon="5.89578">
        <ele>1411.83</ele>
        <time>2013-07-14T04:54:25Z</time>
      </trkpt>
      <trkpt lat="45.49403" lon="5.89586">
        <ele>1414.24</ele>
        <time>2013-07-14T04:54:39Z</time>
      </trkpt>
      <trkpt lat="45.4941" lon="5.89606">
        <ele>1417.12</ele>
        <time>2013-07-14T04:54:58Z</time>
      </trkpt>
      <trkpt lat="45.49424" lon="5.89617">
        <ele>1420.49</ele>
        <time>2013-07-14T04:55:14Z</time>
      </trkpt>
      <trkpt lat="45.49442" lon="5.89625">
        <ele>1426.25</ele>
        <time>2013-07-14T04:55:30Z</time>
      </trkpt>
      <trkpt lat="45.49457" lon="5.89629">
        <ele>1429.62</ele>
        <time>2013-07-14T04:55:45Z</time>
      </trkpt>
      <trkpt lat="45.49478" lon="5.89632">
        <ele>1434.42</ele>
        <time>2013-07-14T04:56:00Z</time>
      </trkpt>
      <trkpt lat="45.49501" lon="5.8964">
        <ele>1437.31</ele>
        <time>2013-07-14T04:56:19Z</time>
      </trkpt>
      <trkpt lat="45.49524" lon="5.8964">
        <ele>1437.79</ele>
        <time>2013-07-14T04:56:37Z</time>
      </trkpt>
      <trkpt lat="45.49535" lon="5.89638">
        <ele>1438.75</ele>
        <time>2013-07-14T04:56:46Z</time>
      </trkpt>
      <trkpt lat="45.49553" lon="5.8963">
        <ele>1444.04</ele>
        <time>2013-07-14T04:57:02Z</time>
      </trkpt>
      <trkpt lat="45.49573" lon="5.89614">
        <ele>1446.44</ele>
        <time>2013-07-14T04:57:20Z</time>
      </trkpt>
      <trkpt lat="45.49584" lon="5.896">
        <ele>1448.84</ele>
        <time>2013-07-14T04:57:37Z</time>
      </trkpt>
      <trkpt lat="45.49596" lon="5.89571">
        <ele>1454.61</ele>
        <time>2013-07-14T04:57:55Z</time>
      </trkpt>
      <trkpt lat="45.49602" lon="5.89553">
        <ele>1459.9</ele>
        <time>2013-07-14T04:58:14Z</time>
      </trkpt>
      <trkpt lat="45.4961" lon="5.89532">
        <ele>1465.19</ele>
        <time>2013-07-14T04:58:32Z</time>
      </trkpt>
      <trkpt lat="45.49612" lon="5.89524">
        <ele>1465.67</ele>
        <time>2013-07-14T04:58:55Z</time>
      </trkpt>
      <trkpt lat="45.49612" lon="5.8952">
        <ele>1465.19</ele>
        <time>2013-07-14T04:59:20Z</time>
      </trkpt>
      <trkpt lat="45.4961" lon="5.89524">
        <ele>1463.74</ele>
        <time>2013-07-14T04:59:40Z</time>
      </trkpt>
      <trkpt lat="45.49614" lon="5.89515">
        <ele>1465.19</ele>
        <time>2013-07-14T05:00:03Z</time>
      </trkpt>
      <trkpt lat="45.49621" lon="5.895">
        <ele>1470.47</ele>
        <time>2013-07-14T05:00:23Z</time>
      </trkpt>
      <trkpt lat="45.49625" lon="5.89473">
        <ele>1472.4</ele>
        <time>2013-07-14T05:00:40Z</time>
      </trkpt>
      <trkpt lat="45.4963" lon="5.89452">
        <ele>1474.32</ele>
        <time>2013-07-14T05:00:56Z</time>
      </trkpt>
      <trkpt lat="45.49634" lon="5.89438">
        <ele>1475.76</ele>
        <time>2013-07-14T05:01:15Z</time>
      </trkpt>
      <trkpt lat="45.49645" lon="5.89413">
        <ele>1481.05</ele>
        <time>2013-07-14T05:01:35Z</time>
      </trkpt>
      <trkpt lat="45.49653" lon="5.89391">
        <ele>1482.97</ele>
        <time>2013-07-14T05:01:53Z</time>
      </trkpt>
      <trkpt lat="45.49655" lon="5.89386">
        <ele>1484.41</ele>
        <time>2013-07-14T05:02:08Z</time>
      </trkpt>
      <trkpt lat="45.49658" lon="5.89388">
        <ele>1483.93</ele>
        <time>2013-07-14T05:02:23Z</time>
      </trkpt>
      <trkpt lat="45.4966" lon="5.89391">
        <ele>1483.93</ele>
        <time>2013-07-14T05:02:29Z</time>
      </trkpt>
      <trkpt lat="45.49662" lon="5.89395">
        <ele>1483.45</ele>
        <time>2013-07-14T05:02:33Z</time>
      </trkpt>
      <trkpt lat="45.49666" lon="5.89399">
        <ele>1482.49</ele>
        <time>2013-07-14T05:02:36Z</time>
      </trkpt>
      <trkpt lat="45.49678" lon="5.89416">
        <ele>1480.57</ele>
        <time>2013-07-14T05:02:47Z</time>
      </trkpt>
      <trkpt lat="45.49696" lon="5.89439">
        <ele>1476.72</ele>
        <time>2013-07-14T05:03:01Z</time>
      </trkpt>
      <trkpt lat="45.49708" lon="5.89455">
        <ele>1474.8</ele>
        <time>2013-07-14T05:03:13Z</time>
      </trkpt>
      <trkpt lat="45.49722" lon="5.89474">
        <ele>1469.51</ele>
        <time>2013-07-14T05:03:27Z</time>
      </trkpt>
      <trkpt lat="45.49734" lon="5.89488">
        <ele>1462.3</ele>
        <time>2013-07-14T05:03:41Z</time>
      </trkpt>
      <trkpt lat="45.49737" lon="5.89492">
        <ele>1459.9</ele>
        <time>2013-07-14T05:03:45Z</time>
      </trkpt>
      <trkpt lat="45.49751" lon="5.8951">
        <ele>1457.5</ele>
        <time>2013-07-14T05:03:57Z</time>
      </trkpt>
      <trkpt lat="45.49754" lon="5.89525">
        <ele>1454.13</ele>
        <time>2013-07-14T05:04:07Z</time>
      </trkpt>
      <trkpt lat="45.49769" lon="5.89543">
        <ele>1448.36</ele>
        <time>2013-07-14T05:04:23Z</time>
      </trkpt>
      <trkpt lat="45.49778" lon="5.89563">
        <ele>1444.52</ele>
        <time>2013-07-14T05:04:35Z</time>
      </trkpt>
      <trkpt lat="45.49787" lon="5.89589">
        <ele>1437.79</ele>
        <time>2013-07-14T05:04:48Z</time>
      </trkpt>
      <trkpt lat="45.49801" lon="5.89611">
        <ele>1432.5</ele>
        <time>2013-07-14T05:05:03Z</time>
      </trkpt>
      <trkpt lat="45.49806" lon="5.89624">
        <ele>1429.62</ele>
        <time>2013-07-14T05:05:09Z</time>
      </trkpt>
      <trkpt lat="45.49821" lon="5.89647">
        <ele>1423.37</ele>
        <time>2013-07-14T05:05:25Z</time>
      </trkpt>
      <trkpt lat="45.49823" lon="5.89652">
        <ele>1422.41</ele>
        <time>2013-07-14T05:05:27Z</time>
      </trkpt>
      <trkpt lat="45.49841" lon="5.89675">
        <ele>1414.24</ele>
        <time>2013-07-14T05:05:44Z</time>
      </trkpt>
      <trkpt lat="45.49849" lon="5.89684">
        <ele>1412.79</ele>
        <time>2013-07-14T05:05:50Z</time>
      </trkpt>
      <trkpt lat="45.4986" lon="5.89695">
        <ele>1409.91</ele>
        <time>2013-07-14T05:05:58Z</time>
      </trkpt>
      <trkpt lat="45.49872" lon="5.89717">
        <ele>1404.62</ele>
        <time>2013-07-14T05:06:12Z</time>
      </trkpt>
      <trkpt lat="45.49882" lon="5.89722">
        <ele>1399.82</ele>
        <time>2013-07-14T05:06:29Z</time>
      </trkpt>
      <trkpt lat="45.499" lon="5.89733">
        <ele>1395.01</ele>
        <time>2013-07-14T05:06:43Z</time>
      </trkpt>
      <trkpt lat="45.49909" lon="5.89737">
        <ele>1391.65</ele>
        <time>2013-07-14T05:06:53Z</time>
      </trkpt>
      <trkpt lat="45.49925" lon="5.89745">
        <ele>1383.47</ele>
        <time>2013-07-14T05:07:04Z</time>
      </trkpt>
      <trkpt lat="45.49956" lon="5.89751">
        <ele>1373.86</ele>
        <time>2013-07-14T05:07:20Z</time>
      </trkpt>
      <trkpt lat="45.49987" lon="5.89764">
        <ele>1364.25</ele>
        <time>2013-07-14T05:07:38Z</time>
      </trkpt>
      <trkpt lat="45.50015" lon="5.89784">
        <ele>1357.04</ele>
        <time>2013-07-14T05:07:52Z</time>
      </trkpt>
      <trkpt lat="45.5003" lon="5.8981">
        <ele>1352.23</ele>
        <time>2013-07-14T05:08:05Z</time>
      </trkpt>
      <trkpt lat="45.5003" lon="5.89812">
        <ele>1352.23</ele>
        <time>2013-07-14T05:08:17Z</time>
      </trkpt>
      <trkpt lat="45.50052" lon="5.89839">
        <ele>1350.31</ele>
        <time>2013-07-14T05:08:34Z</time>
      </trkpt>
      <trkpt lat="45.5008" lon="5.89872">
        <ele>1348.87</ele>
        <time>2013-07-14T05:08:49Z</time>
      </trkpt>
      <trkpt lat="45.50114" lon="5.89904">
        <ele>1348.39</ele>
        <time>2013-07-14T05:09:06Z</time>
      </trkpt>
      <trkpt lat="45.50138" lon="5.89932">
        <ele>1347.43</ele>
        <time>2013-07-14T05:09:21Z</time>
      </trkpt>
      <trkpt lat="45.50152" lon="5.89933">
        <ele>1349.83</ele>
        <time>2013-07-14T05:09:35Z</time>
      </trkpt>
      <trkpt lat="45.50186" lon="5.89975">
        <ele>1350.31</ele>
        <time>2013-07-14T05:09:52Z</time>
      </trkpt>
      <trkpt lat="45.50192" lon="5.89981">
        <ele>1350.79</ele>
        <time>2013-07-14T05:09:58Z</time>
      </trkpt>
      <trkpt lat="45.50193" lon="5.89991">
        <ele>1352.23</ele>
        <time>2013-07-14T05:10:05Z</time>
      </trkpt>
      <trkpt lat="45.50189" lon="5.89998">
        <ele>1351.75</ele>
        <time>2013-07-14T05:10:09Z</time>
      </trkpt>
      <trkpt lat="45.50167" lon="5.90035">
        <ele>1344.54</ele>
        <time>2013-07-14T05:10:27Z</time>
      </trkpt>
      <trkpt lat="45.50167" lon="5.90077">
        <ele>1335.41</ele>
        <time>2013-07-14T05:10:41Z</time>
      </trkpt>
      <trkpt lat="45.50176" lon="5.90122">
        <ele>1324.35</ele>
        <time>2013-07-14T05:10:56Z</time>
      </trkpt>
      <trkpt lat="45.50176" lon="5.90134">
        <ele>1320.99</ele>
        <time>2013-07-14T05:11:01Z</time>
      </trkpt>
      <trkpt lat="45.50176" lon="5.90143">
        <ele>1318.1</ele>
        <time>2013-07-14T05:11:05Z</time>
      </trkpt>
      <trkpt lat="45.50177" lon="5.90195">
        <ele>1306.57</ele>
        <time>2013-07-14T05:11:21Z</time>
      </trkpt>
      <trkpt lat="45.50181" lon="5.90203">
        <ele>1305.61</ele>
        <time>2013-07-14T05:11:28Z</time>
      </trkpt>
      <trkpt lat="45.50179" lon="5.90191">
        <ele>1307.05</ele>
        <time>2013-07-14T05:11:41Z</time>
      </trkpt>
      <trkpt lat="45.5018" lon="5.90194">
        <ele>1308.49</ele>
        <time>2013-07-14T05:11:51Z</time>
      </trkpt>
      <trkpt lat="45.50181" lon="5.90196">
        <ele>1308.01</ele>
        <time>2013-07-14T05:11:53Z</time>
      </trkpt>
      <trkpt lat="45.50186" lon="5.90201">
        <ele>1308.01</ele>
        <time>2013-07-14T05:11:57Z</time>
      </trkpt>
      <trkpt lat="45.50194" lon="5.90207">
        <ele>1307.53</ele>
        <time>2013-07-14T05:12:04Z</time>
      </trkpt>
      <trkpt lat="45.50218" lon="5.90229">
        <ele>1305.61</ele>
        <time>2013-07-14T05:12:22Z</time>
      </trkpt>
      <trkpt lat="45.50225" lon="5.90239">
        <ele>1302.24</ele>
        <time>2013-07-14T05:12:32Z</time>
      </trkpt>
      <trkpt lat="45.50241" lon="5.90275">
        <ele>1297.44</ele>
        <time>2013-07-14T05:12:49Z</time>
      </trkpt>
      <trkpt lat="45.50267" lon="5.90299">
        <ele>1291.19</ele>
        <time>2013-07-14T05:13:07Z</time>
      </trkpt>
      <trkpt lat="45.50276" lon="5.90328">
        <ele>1284.46</ele>
        <time>2013-07-14T05:13:21Z</time>
      </trkpt>
      <trkpt lat="45.50283" lon="5.90354">
        <ele>1278.69</ele>
        <time>2013-07-14T05:13:33Z</time>
      </trkpt>
      <trkpt lat="45.50279" lon="5.90401">
        <ele>1271.48</ele>
        <time>2013-07-14T05:13:49Z</time>
      </trkpt>
      <trkpt lat="45.50271" lon="5.90454">
        <ele>1263.31</ele>
        <time>2013-07-14T05:14:04Z</time>
      </trkpt>
      <trkpt lat="45.50271" lon="5.90456">
        <ele>1262.83</ele>
        <time>2013-07-14T05:14:05Z</time>
      </trkpt>
      <trkpt lat="45.50248" lon="5.90502">
        <ele>1253.22</ele>
        <time>2013-07-14T05:14:23Z</time>
      </trkpt>
      <trkpt lat="45.50242" lon="5.90549">
        <ele>1238.32</ele>
        <time>2013-07-14T05:14:36Z</time>
      </trkpt>
      <trkpt lat="45.50246" lon="5.906">
        <ele>1229.18</ele>
        <time>2013-07-14T05:14:52Z</time>
      </trkpt>
      <trkpt lat="45.50261" lon="5.90632">
        <ele>1219.57</ele>
        <time>2013-07-14T05:15:07Z</time>
      </trkpt>
      <trkpt lat="45.50268" lon="5.90663">
        <ele>1210.92</ele>
        <time>2013-07-14T05:15:19Z</time>
      </trkpt>
      <trkpt lat="45.50299" lon="5.90683">
        <ele>1205.15</ele>
        <time>2013-07-14T05:15:35Z</time>
      </trkpt>
      <trkpt lat="45.50303" lon="5.90711">
        <ele>1194.58</ele>
        <time>2013-07-14T05:15:51Z</time>
      </trkpt>
      <trkpt lat="45.50301" lon="5.90719">
        <ele>1190.73</ele>
        <time>2013-07-14T05:15:56Z</time>
      </trkpt>
      <trkpt lat="45.503" lon="5.90742">
        <ele>1187.37</ele>
        <time>2013-07-14T05:16:03Z</time>
      </trkpt>
      <trkpt lat="45.50298" lon="5.90766">
        <ele>1184.48</ele>
        <time>2013-07-14T05:16:21Z</time>
      </trkpt>
      <trkpt lat="45.50295" lon="5.90742">
        <ele>1173.43</ele>
        <time>2013-07-14T05:16:43Z</time>
      </trkpt>
      <trkpt lat="45.50307" lon="5.90765">
        <ele>1173.91</ele>
        <time>2013-07-14T05:17:01Z</time>
      </trkpt>
      <trkpt lat="45.50317" lon="5.90789">
        <ele>1172.95</ele>
        <time>2013-07-14T05:17:14Z</time>
      </trkpt>
      <trkpt lat="45.50328" lon="5.90819">
        <ele>1171.98</ele>
        <time>2013-07-14T05:17:30Z</time>
      </trkpt>
      <trkpt lat="45.5034" lon="5.90844">
        <ele>1166.7</ele>
        <time>2013-07-14T05:17:45Z</time>
      </trkpt>
      <trkpt lat="45.50352" lon="5.90875">
        <ele>1161.89</ele>
        <time>2013-07-14T05:18:04Z</time>
      </trkpt>
      <trkpt lat="45.50361" lon="5.90896">
        <ele>1156.6</ele>
        <time>2013-07-14T05:18:19Z</time>
      </trkpt>
      <trkpt lat="45.50378" lon="5.90921">
        <ele>1146.51</ele>
        <time>2013-07-14T05:18:36Z</time>
      </trkpt>
      <trkpt lat="45.50385" lon="5.90943">
        <ele>1142.18</ele>
        <time>2013-07-14T05:18:46Z</time>
      </trkpt>
      <trkpt lat="45.50403" lon="5.90937">
        <ele>1135.45</ele>
        <time>2013-07-14T05:19:02Z</time>
      </trkpt>
      <trkpt lat="45.50428" lon="5.90913">
        <ele>1124.88</ele>
        <time>2013-07-14T05:19:21Z</time>
      </trkpt>
      <trkpt lat="45.50453" lon="5.90917">
        <ele>1120.07</ele>
        <time>2013-07-14T05:19:32Z</time>
      </trkpt>
      <trkpt lat="45.50452" lon="5.90959">
        <ele>1117.67</ele>
        <time>2013-07-14T05:19:47Z</time>
      </trkpt>
      <trkpt lat="45.50438" lon="5.91005">
        <ele>1113.34</ele>
        <time>2013-07-14T05:20:05Z</time>
      </trkpt>
      <trkpt lat="45.50426" lon="5.91044">
        <ele>1105.17</ele>
        <time>2013-07-14T05:20:22Z</time>
      </trkpt>
      <trkpt lat="45.50409" lon="5.91101">
        <ele>1099.89</ele>
        <time>2013-07-14T05:20:39Z</time>
      </trkpt>
      <trkpt lat="45.50407" lon="5.91106">
        <ele>1099.4</ele>
        <time>2013-07-14T05:20:41Z</time>
      </trkpt>
      <trkpt lat="45.50404" lon="5.91132">
        <ele>1097.48</ele>
        <time>2013-07-14T05:20:52Z</time>
      </trkpt>
      <trkpt lat="45.50393" lon="5.91186">
        <ele>1093.64</ele>
        <time>2013-07-14T05:21:10Z</time>
      </trkpt>
      <trkpt lat="45.50373" lon="5.91228">
        <ele>1089.31</ele>
        <time>2013-07-14T05:21:27Z</time>
      </trkpt>
      <trkpt lat="45.50356" lon="5.91249">
        <ele>1086.91</ele>
        <time>2013-07-14T05:21:37Z</time>
      </trkpt>
      <trkpt lat="45.50356" lon="5.91268">
        <ele>1084.99</ele>
        <time>2013-07-14T05:21:42Z</time>
      </trkpt>
      <trkpt lat="45.50366" lon="5.91317">
        <ele>1077.78</ele>
        <time>2013-07-14T05:21:59Z</time>
      </trkpt>
      <trkpt lat="45.50376" lon="5.91355">
        <ele>1072.49</ele>
        <time>2013-07-14T05:22:13Z</time>
      </trkpt>
      <trkpt lat="45.50388" lon="5.91391">
        <ele>1068.64</ele>
        <time>2013-07-14T05:22:26Z</time>
      </trkpt>
      <trkpt lat="45.50402" lon="5.91414">
        <ele>1066.24</ele>
        <time>2013-07-14T05:22:40Z</time>
      </trkpt>
      <trkpt lat="45.50408" lon="5.91423">
        <ele>1065.76</ele>
        <time>2013-07-14T05:22:57Z</time>
      </trkpt>
      <trkpt lat="45.50414" lon="5.91429">
        <ele>1064.32</ele>
        <time>2013-07-14T05:23:01Z</time>
      </trkpt>
      <trkpt lat="45.50453" lon="5.9145">
        <ele>1059.03</ele>
        <time>2013-07-14T05:23:20Z</time>
      </trkpt>
      <trkpt lat="45.50496" lon="5.91474">
        <ele>1055.18</ele>
        <time>2013-07-14T05:23:40Z</time>
      </trkpt>
      <trkpt lat="45.50525" lon="5.91497">
        <ele>1054.22</ele>
        <time>2013-07-14T05:23:54Z</time>
      </trkpt>
      <trkpt lat="45.50535" lon="5.91508">
        <ele>1057.59</ele>
        <time>2013-07-14T05:24:03Z</time>
      </trkpt>
      <trkpt lat="45.50553" lon="5.91518">
        <ele>1056.15</ele>
        <time>2013-07-14T05:24:14Z</time>
      </trkpt>
      <trkpt lat="45.50584" lon="5.91562">
        <ele>1054.22</ele>
        <time>2013-07-14T05:24:33Z</time>
      </trkpt>
      <trkpt lat="45.50607" lon="5.91604">
        <ele>1051.34</ele>
        <time>2013-07-14T05:24:50Z</time>
      </trkpt>
      <trkpt lat="45.50632" lon="5.91637">
        <ele>1045.09</ele>
        <time>2013-07-14T05:25:06Z</time>
      </trkpt>
      <trkpt lat="45.50646" lon="5.91646">
        <ele>1042.69</ele>
        <time>2013-07-14T05:25:13Z</time>
      </trkpt>
      <trkpt lat="45.50668" lon="5.91649">
        <ele>1038.36</ele>
        <time>2013-07-14T05:25:26Z</time>
      </trkpt>
      <trkpt lat="45.50688" lon="5.91688">
        <ele>1034.52</ele>
        <time>2013-07-14T05:25:42Z</time>
      </trkpt>
      <trkpt lat="45.50689" lon="5.9173">
        <ele>1027.31</ele>
        <time>2013-07-14T05:25:58Z</time>
      </trkpt>
      <trkpt lat="45.50708" lon="5.91769">
        <ele>1021.06</ele>
        <time>2013-07-14T05:26:11Z</time>
      </trkpt>
      <trkpt lat="45.50718" lon="5.91783">
        <ele>1019.13</ele>
        <time>2013-07-14T05:26:18Z</time>
      </trkpt>
      <trkpt lat="45.50737" lon="5.91817">
        <ele>1013.37</ele>
        <time>2013-07-14T05:26:32Z</time>
      </trkpt>
      <trkpt lat="45.50749" lon="5.91859">
        <ele>1006.64</ele>
        <time>2013-07-14T05:26:48Z</time>
      </trkpt>
      <trkpt lat="45.50738" lon="5.91891">
        <ele>997.99</ele>
        <time>2013-07-14T05:27:02Z</time>
      </trkpt>
      <trkpt lat="45.50755" lon="5.91921">
        <ele>992.7</ele>
        <time>2013-07-14T05:27:13Z</time>
      </trkpt>
      <trkpt lat="45.50783" lon="5.91929">
        <ele>988.85</ele>
        <time>2013-07-14T05:27:28Z</time>
      </trkpt>
      <trkpt lat="45.50808" lon="5.91932">
        <ele>985.01</ele>
        <time>2013-07-14T05:27:42Z</time>
      </trkpt>
      <trkpt lat="45.50837" lon="5.9194">
        <ele>980.68</ele>
        <time>2013-07-14T05:27:56Z</time>
      </trkpt>
      <trkpt lat="45.50873" lon="5.91947">
        <ele>976.36</ele>
        <time>2013-07-14T05:28:13Z</time>
      </trkpt>
      <trkpt lat="45.50888" lon="5.91953">
        <ele>973.95</ele>
        <time>2013-07-14T05:28:21Z</time>
      </trkpt>
      <trkpt lat="45.50896" lon="5.91985">
        <ele>968.18</ele>
        <time>2013-07-14T05:28:40Z</time>
      </trkpt>
      <trkpt lat="45.50915" lon="5.92034">
        <ele>963.86</ele>
        <time>2013-07-14T05:28:56Z</time>
      </trkpt>
      <trkpt lat="45.50928" lon="5.92077">
        <ele>955.21</ele>
        <time>2013-07-14T05:29:13Z</time>
      </trkpt>
      <trkpt lat="45.50938" lon="5.92111">
        <ele>949.44</ele>
        <time>2013-07-14T05:29:28Z</time>
      </trkpt>
      <trkpt lat="45.50946" lon="5.92157">
        <ele>939.35</ele>
        <time>2013-07-14T05:29:45Z</time>
      </trkpt>
      <trkpt lat="45.50951" lon="5.92206">
        <ele>929.73</ele>
        <time>2013-07-14T05:30:03Z</time>
      </trkpt>
      <trkpt lat="45.50953" lon="5.92218">
        <ele>928.29</ele>
        <time>2013-07-14T05:30:07Z</time>
      </trkpt>
      <trkpt lat="45.50958" lon="5.92234">
        <ele>925.89</ele>
        <time>2013-07-14T05:30:12Z</time>
      </trkpt>
      <trkpt lat="45.5096" lon="5.92246">
        <ele>923.96</ele>
        <time>2013-07-14T05:30:17Z</time>
      </trkpt>
      <trkpt lat="45.50968" lon="5.92288">
        <ele>916.75</ele>
        <time>2013-07-14T05:30:33Z</time>
      </trkpt>
      <trkpt lat="45.50984" lon="5.92324">
        <ele>908.58</ele>
        <time>2013-07-14T05:30:46Z</time>
      </trkpt>
      <trkpt lat="45.51008" lon="5.92358">
        <ele>901.37</ele>
        <time>2013-07-14T05:31:03Z</time>
      </trkpt>
      <trkpt lat="45.51029" lon="5.9237">
        <ele>898.01</ele>
        <time>2013-07-14T05:31:18Z</time>
      </trkpt>
      <trkpt lat="45.51032" lon="5.92371">
        <ele>897.53</ele>
        <time>2013-07-14T05:31:33Z</time>
      </trkpt>
      <trkpt lat="45.51035" lon="5.92373">
        <ele>897.05</ele>
        <time>2013-07-14T05:31:37Z</time>
      </trkpt>
      <trkpt lat="45.51039" lon="5.92373">
        <ele>896.09</ele>
        <time>2013-07-14T05:31:44Z</time>
      </trkpt>
      <trkpt lat="45.51042" lon="5.92377">
        <ele>895.61</ele>
        <time>2013-07-14T05:31:53Z</time>
      </trkpt>
      <trkpt lat="45.51059" lon="5.924">
        <ele>892.24</ele>
        <time>2013-07-14T05:32:06Z</time>
      </trkpt>
      <trkpt lat="45.51066" lon="5.92393">
        <ele>890.32</ele>
        <time>2013-07-14T05:32:11Z</time>
      </trkpt>
      <trkpt lat="45.5108" lon="5.92372">
        <ele>885.51</ele>
        <time>2013-07-14T05:32:24Z</time>
      </trkpt>
      <trkpt lat="45.5108" lon="5.92371">
        <ele>884.55</ele>
        <time>2013-07-14T05:32:29Z</time>
      </trkpt>
      <trkpt lat="45.51085" lon="5.92374">
        <ele>884.07</ele>
        <time>2013-07-14T05:32:33Z</time>
      </trkpt>
      <trkpt lat="45.5109" lon="5.9239">
        <ele>882.15</ele>
        <time>2013-07-14T05:32:38Z</time>
      </trkpt>
      <trkpt lat="45.51087" lon="5.92395">
        <ele>878.78</ele>
        <time>2013-07-14T05:32:51Z</time>
      </trkpt>
      <trkpt lat="45.51086" lon="5.92396">
        <ele>877.82</ele>
        <time>2013-07-14T05:33:11Z</time>
      </trkpt>
      <trkpt lat="45.51085" lon="5.92392">
        <ele>876.86</ele>
        <time>2013-07-14T05:33:46Z</time>
      </trkpt>
      <trkpt lat="45.51086" lon="5.92392">
        <ele>875.9</ele>
        <time>2013-07-14T05:34:25Z</time>
      </trkpt>
      <trkpt lat="45.51085" lon="5.92399">
        <ele>875.42</ele>
        <time>2013-07-14T05:34:41Z</time>
      </trkpt>
      <trkpt lat="45.51079" lon="5.92418">
        <ele>874.46</ele>
        <time>2013-07-14T05:35:04Z</time>
      </trkpt>
      <trkpt lat="45.5106" lon="5.92461">
        <ele>872.53</ele>
        <time>2013-07-14T05:35:21Z</time>
      </trkpt>
      <trkpt lat="45.51044" lon="5.92491">
        <ele>868.69</ele>
        <time>2013-07-14T05:35:33Z</time>
      </trkpt>
      <trkpt lat="45.51045" lon="5.92504">
        <ele>867.73</ele>
        <time>2013-07-14T05:35:37Z</time>
      </trkpt>
      <trkpt lat="45.51047" lon="5.92509">
        <ele>867.25</ele>
        <time>2013-07-14T05:35:40Z</time>
      </trkpt>
      <trkpt lat="45.51057" lon="5.9252">
        <ele>866.77</ele>
        <time>2013-07-14T05:35:49Z</time>
      </trkpt>
      <trkpt lat="45.51063" lon="5.92528">
        <ele>865.32</ele>
        <time>2013-07-14T05:35:53Z</time>
      </trkpt>
      <trkpt lat="45.51078" lon="5.92575">
        <ele>858.59</ele>
        <time>2013-07-14T05:36:07Z</time>
      </trkpt>
      <trkpt lat="45.51094" lon="5.92606">
        <ele>853.31</ele>
        <time>2013-07-14T05:36:19Z</time>
      </trkpt>
      <trkpt lat="45.51101" lon="5.92612">
        <ele>851.38</ele>
        <time>2013-07-14T05:36:31Z</time>
      </trkpt>
      <trkpt lat="45.51104" lon="5.92608">
        <ele>847.54</ele>
        <time>2013-07-14T05:36:46Z</time>
      </trkpt>
      <trkpt lat="45.51122" lon="5.92621">
        <ele>843.69</ele>
        <time>2013-07-14T05:36:57Z</time>
      </trkpt>
      <trkpt lat="45.51143" lon="5.92627">
        <ele>839.85</ele>
        <time>2013-07-14T05:37:13Z</time>
      </trkpt>
      <trkpt lat="45.51156" lon="5.92635">
        <ele>836.96</ele>
        <time>2013-07-14T05:37:23Z</time>
      </trkpt>
      <trkpt lat="45.51183" lon="5.92633">
        <ele>834.56</ele>
        <time>2013-07-14T05:37:43Z</time>
      </trkpt>
      <trkpt lat="45.51199" lon="5.92631">
        <ele>836</ele>
        <time>2013-07-14T05:37:58Z</time>
      </trkpt>
      <trkpt lat="45.51227" lon="5.92625">
        <ele>833.12</ele>
        <time>2013-07-14T05:38:18Z</time>
      </trkpt>
      <trkpt lat="45.51248" lon="5.9262">
        <ele>830.24</ele>
        <time>2013-07-14T05:38:33Z</time>
      </trkpt>
      <trkpt lat="45.51266" lon="5.92608">
        <ele>828.79</ele>
        <time>2013-07-14T05:38:45Z</time>
      </trkpt>
      <trkpt lat="45.51269" lon="5.92606">
        <ele>828.79</ele>
        <time>2013-07-14T05:38:47Z</time>
      </trkpt>
      <trkpt lat="45.51277" lon="5.926">
        <ele>829.76</ele>
        <time>2013-07-14T05:38:53Z</time>
      </trkpt>
      <trkpt lat="45.51283" lon="5.92593">
        <ele>830.24</ele>
        <time>2013-07-14T05:39:00Z</time>
      </trkpt>
      <trkpt lat="45.51296" lon="5.92592">
        <ele>829.76</ele>
        <time>2013-07-14T05:39:11Z</time>
      </trkpt>
      <trkpt lat="45.51305" lon="5.92589">
        <ele>834.08</ele>
        <time>2013-07-14T05:39:21Z</time>
      </trkpt>
      <trkpt lat="45.51322" lon="5.92588">
        <ele>835.52</ele>
        <time>2013-07-14T05:39:33Z</time>
      </trkpt>
      <trkpt lat="45.51325" lon="5.9259">
        <ele>835.52</ele>
        <time>2013-07-14T05:39:36Z</time>
      </trkpt>
      <trkpt lat="45.5134" lon="5.92601">
        <ele>835.04</ele>
        <time>2013-07-14T05:39:49Z</time>
      </trkpt>
      <trkpt lat="45.51346" lon="5.92607">
        <ele>836</ele>
        <time>2013-07-14T05:39:54Z</time>
      </trkpt>
      <trkpt lat="45.51355" lon="5.92614">
        <ele>836.96</ele>
        <time>2013-07-14T05:40:01Z</time>
      </trkpt>
      <trkpt lat="45.51374" lon="5.92626">
        <ele>838.89</ele>
        <time>2013-07-14T05:40:18Z</time>
      </trkpt>
      <trkpt lat="45.51389" lon="5.9264">
        <ele>841.29</ele>
        <time>2013-07-14T05:40:31Z</time>
      </trkpt>
      <trkpt lat="45.51392" lon="5.92648">
        <ele>842.25</ele>
        <time>2013-07-14T05:40:37Z</time>
      </trkpt>
      <trkpt lat="45.51396" lon="5.92651">
        <ele>843.21</ele>
        <time>2013-07-14T05:40:41Z</time>
      </trkpt>
      <trkpt lat="45.51406" lon="5.92646">
        <ele>845.62</ele>
        <time>2013-07-14T05:40:58Z</time>
      </trkpt>
      <trkpt lat="45.51411" lon="5.9265">
        <ele>846.58</ele>
        <time>2013-07-14T05:41:14Z</time>
      </trkpt>
      <trkpt lat="45.51422" lon="5.92652">
        <ele>844.18</ele>
        <time>2013-07-14T05:41:29Z</time>
      </trkpt>
      <trkpt lat="45.51421" lon="5.92661">
        <ele>844.18</ele>
        <time>2013-07-14T05:41:48Z</time>
      </trkpt>
      <trkpt lat="45.51423" lon="5.92675">
        <ele>843.69</ele>
        <time>2013-07-14T05:41:52Z</time>
      </trkpt>
      <trkpt lat="45.51424" lon="5.92722">
        <ele>842.25</ele>
        <time>2013-07-14T05:42:08Z</time>
      </trkpt>
      <trkpt lat="45.51433" lon="5.92756">
        <ele>838.41</ele>
        <time>2013-07-14T05:42:25Z</time>
      </trkpt>
      <trkpt lat="45.51435" lon="5.92765">
        <ele>836.96</ele>
        <time>2013-07-14T05:42:29Z</time>
      </trkpt>
      <trkpt lat="45.51438" lon="5.92778">
        <ele>835.52</ele>
        <time>2013-07-14T05:42:34Z</time>
      </trkpt>
      <trkpt lat="45.51452" lon="5.92805">
        <ele>829.27</ele>
        <time>2013-07-14T05:42:48Z</time>
      </trkpt>
      <trkpt lat="45.51456" lon="5.92825">
        <ele>826.39</ele>
        <time>2013-07-14T05:42:58Z</time>
      </trkpt>
      <trkpt lat="45.51456" lon="5.92861">
        <ele>820.14</ele>
        <time>2013-07-14T05:43:14Z</time>
      </trkpt>
      <trkpt lat="45.51459" lon="5.92902">
        <ele>813.89</ele>
        <time>2013-07-14T05:43:29Z</time>
      </trkpt>
      <trkpt lat="45.51455" lon="5.92945">
        <ele>809.09</ele>
        <time>2013-07-14T05:43:45Z</time>
      </trkpt>
      <trkpt lat="45.51457" lon="5.92988">
        <ele>805.24</ele>
        <time>2013-07-14T05:43:58Z</time>
      </trkpt>
      <trkpt lat="45.51458" lon="5.93025">
        <ele>798.99</ele>
        <time>2013-07-14T05:44:12Z</time>
      </trkpt>
      <trkpt lat="45.51453" lon="5.93059">
        <ele>793.22</ele>
        <time>2013-07-14T05:44:28Z</time>
      </trkpt>
      <trkpt lat="45.51453" lon="5.93061">
        <ele>793.22</ele>
        <time>2013-07-14T05:44:29Z</time>
      </trkpt>
      <trkpt lat="45.51456" lon="5.9307">
        <ele>790.82</ele>
        <time>2013-07-14T05:44:34Z</time>
      </trkpt>
      <trkpt lat="45.51474" lon="5.93105">
        <ele>786.02</ele>
        <time>2013-07-14T05:44:49Z</time>
      </trkpt>
      <trkpt lat="45.51492" lon="5.93125">
        <ele>782.17</ele>
        <time>2013-07-14T05:45:00Z</time>
      </trkpt>
      <trkpt lat="45.51495" lon="5.93128">
        <ele>779.77</ele>
        <time>2013-07-14T05:45:05Z</time>
      </trkpt>
      <trkpt lat="45.51497" lon="5.93129">
        <ele>778.32</ele>
        <time>2013-07-14T05:45:07Z</time>
      </trkpt>
      <trkpt lat="45.51511" lon="5.93143">
        <ele>777.84</ele>
        <time>2013-07-14T05:45:21Z</time>
      </trkpt>
      <trkpt lat="45.51529" lon="5.93158">
        <ele>780.73</ele>
        <time>2013-07-14T05:45:38Z</time>
      </trkpt>
      <trkpt lat="45.51546" lon="5.93167">
        <ele>782.17</ele>
        <time>2013-07-14T05:45:52Z</time>
      </trkpt>
      <trkpt lat="45.51554" lon="5.93169">
        <ele>782.17</ele>
        <time>2013-07-14T05:45:58Z</time>
      </trkpt>
      <trkpt lat="45.51576" lon="5.93184">
        <ele>779.77</ele>
        <time>2013-07-14T05:46:14Z</time>
      </trkpt>
      <trkpt lat="45.51578" lon="5.93185">
        <ele>779.77</ele>
        <time>2013-07-14T05:46:16Z</time>
      </trkpt>
      <trkpt lat="45.51592" lon="5.93193">
        <ele>778.32</ele>
        <time>2013-07-14T05:46:27Z</time>
      </trkpt>
      <trkpt lat="45.51608" lon="5.93203">
        <ele>775.44</ele>
        <time>2013-07-14T05:46:40Z</time>
      </trkpt>
      <trkpt lat="45.5161" lon="5.93204">
        <ele>774.96</ele>
        <time>2013-07-14T05:46:42Z</time>
      </trkpt>
      <trkpt lat="45.51612" lon="5.93206">
        <ele>774.48</ele>
        <time>2013-07-14T05:46:44Z</time>
      </trkpt>
      <trkpt lat="45.51617" lon="5.93207">
        <ele>774.48</ele>
        <time>2013-07-14T05:46:48Z</time>
      </trkpt>
      <trkpt lat="45.51635" lon="5.93215">
        <ele>773.04</ele>
        <time>2013-07-14T05:47:03Z</time>
      </trkpt>
      <trkpt lat="45.51649" lon="5.93222">
        <ele>772.08</ele>
        <time>2013-07-14T05:47:15Z</time>
      </trkpt>
      <trkpt lat="45.51657" lon="5.93227">
        <ele>771.6</ele>
        <time>2013-07-14T05:47:20Z</time>
      </trkpt>
      <trkpt lat="45.51669" lon="5.93232">
        <ele>769.67</ele>
        <time>2013-07-14T05:47:30Z</time>
      </trkpt>
      <trkpt lat="45.51682" lon="5.93251">
        <ele>772.08</ele>
        <time>2013-07-14T05:47:44Z</time>
      </trkpt>
      <trkpt lat="45.51693" lon="5.93262">
        <ele>775.44</ele>
        <time>2013-07-14T05:47:55Z</time>
      </trkpt>
      <trkpt lat="45.51694" lon="5.93263">
        <ele>775.44</ele>
        <time>2013-07-14T05:47:56Z</time>
      </trkpt>
      <trkpt lat="45.51703" lon="5.93268">
        <ele>776.4</ele>
        <time>2013-07-14T05:48:02Z</time>
      </trkpt>
      <trkpt lat="45.51709" lon="5.93259">
        <ele>774.96</ele>
        <time>2013-07-14T05:48:06Z</time>
      </trkpt>
      <trkpt lat="45.51723" lon="5.93241">
        <ele>771.6</ele>
        <time>2013-07-14T05:48:19Z</time>
      </trkpt>
      <trkpt lat="45.51737" lon="5.93228">
        <ele>769.19</ele>
        <time>2013-07-14T05:48:33Z</time>
      </trkpt>
      <trkpt lat="45.51739" lon="5.9323">
        <ele>769.19</ele>
        <time>2013-07-14T05:48:34Z</time>
      </trkpt>
      <trkpt lat="45.51764" lon="5.93249">
        <ele>768.23</ele>
        <time>2013-07-14T05:48:51Z</time>
      </trkpt>
      <trkpt lat="45.5179" lon="5.9324">
        <ele>766.31</ele>
        <time>2013-07-14T05:49:11Z</time>
      </trkpt>
      <trkpt lat="45.51818" lon="5.93237">
        <ele>764.87</ele>
        <time>2013-07-14T05:49:29Z</time>
      </trkpt>
      <trkpt lat="45.51867" lon="5.93258">
        <ele>766.31</ele>
        <time>2013-07-14T05:50:04Z</time>
      </trkpt>
      <trkpt lat="45.51883" lon="5.93284">
        <ele>764.39</ele>
        <time>2013-07-14T05:50:22Z</time>
      </trkpt>
      <trkpt lat="45.51883" lon="5.93295">
        <ele>762.46</ele>
        <time>2013-07-14T05:50:30Z</time>
      </trkpt>
      <trkpt lat="45.51884" lon="5.93332">
        <ele>755.73</ele>
        <time>2013-07-14T05:50:50Z</time>
      </trkpt>
      <trkpt lat="45.51885" lon="5.93334">
        <ele>755.73</ele>
        <time>2013-07-14T05:50:51Z</time>
      </trkpt>
      <trkpt lat="45.51904" lon="5.93337">
        <ele>749.97</ele>
        <time>2013-07-14T05:51:08Z</time>
      </trkpt>
      <trkpt lat="45.51911" lon="5.93335">
        <ele>749</ele>
        <time>2013-07-14T05:51:13Z</time>
      </trkpt>
      <trkpt lat="45.5194" lon="5.93324">
        <ele>747.56</ele>
        <time>2013-07-14T05:51:32Z</time>
      </trkpt>
      <trkpt lat="45.51953" lon="5.93322">
        <ele>748.04</ele>
        <time>2013-07-14T05:51:43Z</time>
      </trkpt>
      <trkpt lat="45.51981" lon="5.93321">
        <ele>743.24</ele>
        <time>2013-07-14T05:52:04Z</time>
      </trkpt>
      <trkpt lat="45.51983" lon="5.93307">
        <ele>741.79</ele>
        <time>2013-07-14T05:52:24Z</time>
      </trkpt>
      <trkpt lat="45.51987" lon="5.93298">
        <ele>744.68</ele>
        <time>2013-07-14T05:52:34Z</time>
      </trkpt>
      <trkpt lat="45.5199" lon="5.93294">
        <ele>745.64</ele>
        <time>2013-07-14T05:52:38Z</time>
      </trkpt>
      <trkpt lat="45.51994" lon="5.93292">
        <ele>745.64</ele>
        <time>2013-07-14T05:52:42Z</time>
      </trkpt>
      <trkpt lat="45.52008" lon="5.9327">
        <ele>746.12</ele>
        <time>2013-07-14T05:52:59Z</time>
      </trkpt>
      <trkpt lat="45.5202" lon="5.93238">
        <ele>748.04</ele>
        <time>2013-07-14T05:53:19Z</time>
      </trkpt>
      <trkpt lat="45.52036" lon="5.93227">
        <ele>747.08</ele>
        <time>2013-07-14T05:53:37Z</time>
      </trkpt>
      <trkpt lat="45.52052" lon="5.93233">
        <ele>750.45</ele>
        <time>2013-07-14T05:53:54Z</time>
      </trkpt>
      <trkpt lat="45.52054" lon="5.93234">
        <ele>750.45</ele>
        <time>2013-07-14T05:53:55Z</time>
      </trkpt>
      <trkpt lat="45.52062" lon="5.93236">
        <ele>750.93</ele>
        <time>2013-07-14T05:54:01Z</time>
      </trkpt>
      <trkpt lat="45.52091" lon="5.93226">
        <ele>755.25</ele>
        <time>2013-07-14T05:54:22Z</time>
      </trkpt>
      <trkpt lat="45.5211" lon="5.93222">
        <ele>758.62</ele>
        <time>2013-07-14T05:54:40Z</time>
      </trkpt>
      <trkpt lat="45.52135" lon="5.93229">
        <ele>764.87</ele>
        <time>2013-07-14T05:55:01Z</time>
      </trkpt>
      <trkpt lat="45.52137" lon="5.93229">
        <ele>765.83</ele>
        <time>2013-07-14T05:55:03Z</time>
      </trkpt>
      <trkpt lat="45.5214" lon="5.93229">
        <ele>766.31</ele>
        <time>2013-07-14T05:55:05Z</time>
      </trkpt>
      <trkpt lat="45.52163" lon="5.93236">
        <ele>770.15</ele>
        <time>2013-07-14T05:55:24Z</time>
      </trkpt>
      <trkpt lat="45.52188" lon="5.93237">
        <ele>772.56</ele>
        <time>2013-07-14T05:55:42Z</time>
      </trkpt>
      <trkpt lat="45.52206" lon="5.93225">
        <ele>772.08</ele>
        <time>2013-07-14T05:55:58Z</time>
      </trkpt>
      <trkpt lat="45.5221" lon="5.93229">
        <ele>773.52</ele>
        <time>2013-07-14T05:56:18Z</time>
      </trkpt>
      <trkpt lat="45.52228" lon="5.93221">
        <ele>775.44</ele>
        <time>2013-07-14T05:56:34Z</time>
      </trkpt>
      <trkpt lat="45.5225" lon="5.93222">
        <ele>777.84</ele>
        <time>2013-07-14T05:56:52Z</time>
      </trkpt>
      <trkpt lat="45.52263" lon="5.9322">
        <ele>777.84</ele>
        <time>2013-07-14T05:57:06Z</time>
      </trkpt>
      <trkpt lat="45.52285" lon="5.93215">
        <ele>779.29</ele>
        <time>2013-07-14T05:57:23Z</time>
      </trkpt>
      <trkpt lat="45.52305" lon="5.93205">
        <ele>781.69</ele>
        <time>2013-07-14T05:57:39Z</time>
      </trkpt>
      <trkpt lat="45.52325" lon="5.93202">
        <ele>784.57</ele>
        <time>2013-07-14T05:57:56Z</time>
      </trkpt>
      <trkpt lat="45.52347" lon="5.93184">
        <ele>787.46</ele>
        <time>2013-07-14T05:58:14Z</time>
      </trkpt>
      <trkpt lat="45.52355" lon="5.93168">
        <ele>787.94</ele>
        <time>2013-07-14T05:58:25Z</time>
      </trkpt>
      <trkpt lat="45.52366" lon="5.93156">
        <ele>789.86</ele>
        <time>2013-07-14T05:58:37Z</time>
      </trkpt>
      <trkpt lat="45.52385" lon="5.93162">
        <ele>794.19</ele>
        <time>2013-07-14T05:58:55Z</time>
      </trkpt>
      <trkpt lat="45.52391" lon="5.93165">
        <ele>796.11</ele>
        <time>2013-07-14T05:59:03Z</time>
      </trkpt>
      <trkpt lat="45.52406" lon="5.93185">
        <ele>804.28</ele>
        <time>2013-07-14T05:59:27Z</time>
      </trkpt>
      <trkpt lat="45.5242" lon="5.93207">
        <ele>807.64</ele>
        <time>2013-07-14T05:59:45Z</time>
      </trkpt>
      <trkpt lat="45.5242" lon="5.93208">
        <ele>808.13</ele>
        <time>2013-07-14T05:59:47Z</time>
      </trkpt>
      <trkpt lat="45.52434" lon="5.93226">
        <ele>811.01</ele>
        <time>2013-07-14T06:00:04Z</time>
      </trkpt>
      <trkpt lat="45.52453" lon="5.93242">
        <ele>814.85</ele>
        <time>2013-07-14T06:00:22Z</time>
      </trkpt>
      <trkpt lat="45.52472" lon="5.93248">
        <ele>816.3</ele>
        <time>2013-07-14T06:00:40Z</time>
      </trkpt>
      <trkpt lat="45.52488" lon="5.93256">
        <ele>816.78</ele>
        <time>2013-07-14T06:00:55Z</time>
      </trkpt>
      <trkpt lat="45.52497" lon="5.93264">
        <ele>817.26</ele>
        <time>2013-07-14T06:01:01Z</time>
      </trkpt>
      <trkpt lat="45.5252" lon="5.93272">
        <ele>820.62</ele>
        <time>2013-07-14T06:01:18Z</time>
      </trkpt>
      <trkpt lat="45.52542" lon="5.93284">
        <ele>821.58</ele>
        <time>2013-07-14T06:01:34Z</time>
      </trkpt>
      <trkpt lat="45.52571" lon="5.93285">
        <ele>820.62</ele>
        <time>2013-07-14T06:01:53Z</time>
      </trkpt>
      <trkpt lat="45.5258" lon="5.9329">
        <ele>819.18</ele>
        <time>2013-07-14T06:01:59Z</time>
      </trkpt>
      <trkpt lat="45.52605" lon="5.933">
        <ele>820.62</ele>
        <time>2013-07-14T06:02:16Z</time>
      </trkpt>
      <trkpt lat="45.52631" lon="5.93309">
        <ele>820.14</ele>
        <time>2013-07-14T06:02:36Z</time>
      </trkpt>
      <trkpt lat="45.52652" lon="5.93317">
        <ele>820.14</ele>
        <time>2013-07-14T06:02:50Z</time>
      </trkpt>
      <trkpt lat="45.52664" lon="5.93323">
        <ele>819.66</ele>
        <time>2013-07-14T06:02:57Z</time>
      </trkpt>
      <trkpt lat="45.52689" lon="5.93334">
        <ele>817.74</ele>
        <time>2013-07-14T06:03:14Z</time>
      </trkpt>
      <trkpt lat="45.52708" lon="5.93337">
        <ele>816.3</ele>
        <time>2013-07-14T06:03:27Z</time>
      </trkpt>
      <trkpt lat="45.5273" lon="5.93324">
        <ele>813.89</ele>
        <time>2013-07-14T06:03:44Z</time>
      </trkpt>
      <trkpt lat="45.52736" lon="5.93327">
        <ele>813.41</ele>
        <time>2013-07-14T06:03:50Z</time>
      </trkpt>
      <trkpt lat="45.52752" lon="5.93345">
        <ele>811.49</ele>
        <time>2013-07-14T06:04:03Z</time>
      </trkpt>
      <trkpt lat="45.52779" lon="5.93345">
        <ele>808.61</ele>
        <time>2013-07-14T06:04:20Z</time>
      </trkpt>
      <trkpt lat="45.52798" lon="5.93342">
        <ele>806.2</ele>
        <time>2013-07-14T06:04:33Z</time>
      </trkpt>
      <trkpt lat="45.52823" lon="5.93346">
        <ele>805.24</ele>
        <time>2013-07-14T06:04:50Z</time>
      </trkpt>
      <trkpt lat="45.52841" lon="5.93351">
        <ele>804.76</ele>
        <time>2013-07-14T06:05:03Z</time>
      </trkpt>
      <trkpt lat="45.5286" lon="5.93359">
        <ele>801.88</ele>
        <time>2013-07-14T06:05:19Z</time>
      </trkpt>
      <trkpt lat="45.52869" lon="5.9336">
        <ele>801.88</ele>
        <time>2013-07-14T06:05:27Z</time>
      </trkpt>
      <trkpt lat="45.52891" lon="5.93348">
        <ele>799.95</ele>
        <time>2013-07-14T06:05:42Z</time>
      </trkpt>
      <trkpt lat="45.52899" lon="5.9332">
        <ele>795.63</ele>
        <time>2013-07-14T06:05:59Z</time>
      </trkpt>
      <trkpt lat="45.52915" lon="5.93312">
        <ele>794.19</ele>
        <time>2013-07-14T06:06:13Z</time>
      </trkpt>
      <trkpt lat="45.52933" lon="5.93313">
        <ele>793.71</ele>
        <time>2013-07-14T06:06:27Z</time>
      </trkpt>
      <trkpt lat="45.52957" lon="5.93321">
        <ele>793.22</ele>
        <time>2013-07-14T06:06:44Z</time>
      </trkpt>
      <trkpt lat="45.52976" lon="5.93316">
        <ele>789.38</ele>
        <time>2013-07-14T06:06:58Z</time>
      </trkpt>
      <trkpt lat="45.52983" lon="5.93306">
        <ele>788.42</ele>
        <time>2013-07-14T06:07:10Z</time>
      </trkpt>
      <trkpt lat="45.52987" lon="5.93291">
        <ele>786.02</ele>
        <time>2013-07-14T06:07:18Z</time>
      </trkpt>
      <trkpt lat="45.52993" lon="5.93286">
        <ele>784.57</ele>
        <time>2013-07-14T06:07:24Z</time>
      </trkpt>
      <trkpt lat="45.52999" lon="5.93286">
        <ele>784.09</ele>
        <time>2013-07-14T06:07:28Z</time>
      </trkpt>
      <trkpt lat="45.53022" lon="5.93307">
        <ele>779.77</ele>
        <time>2013-07-14T06:07:43Z</time>
      </trkpt>
      <trkpt lat="45.53045" lon="5.93318">
        <ele>774.48</ele>
        <time>2013-07-14T06:07:57Z</time>
      </trkpt>
      <trkpt lat="45.53054" lon="5.93317">
        <ele>772.56</ele>
        <time>2013-07-14T06:08:12Z</time>
      </trkpt>
      <trkpt lat="45.53055" lon="5.93317">
        <ele>774</ele>
        <time>2013-07-14T06:08:22Z</time>
      </trkpt>
      <trkpt lat="45.53063" lon="5.93314">
        <ele>775.92</ele>
        <time>2013-07-14T06:08:32Z</time>
      </trkpt>
      <trkpt lat="45.53076" lon="5.93306">
        <ele>773.52</ele>
        <time>2013-07-14T06:08:44Z</time>
      </trkpt>
      <trkpt lat="45.53094" lon="5.93287">
        <ele>767.27</ele>
        <time>2013-07-14T06:09:01Z</time>
      </trkpt>
      <trkpt lat="45.53123" lon="5.93259">
        <ele>761.98</ele>
        <time>2013-07-14T06:09:18Z</time>
      </trkpt>
      <trkpt lat="45.53146" lon="5.93261">
        <ele>755.73</ele>
        <time>2013-07-14T06:09:30Z</time>
      </trkpt>
      <trkpt lat="45.53175" lon="5.93253">
        <ele>748.04</ele>
        <time>2013-07-14T06:09:45Z</time>
      </trkpt>
      <trkpt lat="45.53199" lon="5.93267">
        <ele>743.24</ele>
        <time>2013-07-14T06:09:58Z</time>
      </trkpt>
      <trkpt lat="45.53219" lon="5.93285">
        <ele>738.91</ele>
        <time>2013-07-14T06:10:11Z</time>
      </trkpt>
      <trkpt lat="45.53245" lon="5.933">
        <ele>736.03</ele>
        <time>2013-07-14T06:10:26Z</time>
      </trkpt>
      <trkpt lat="45.53247" lon="5.93301">
        <ele>736.03</ele>
        <time>2013-07-14T06:10:28Z</time>
      </trkpt>
      <trkpt lat="45.53259" lon="5.93296">
        <ele>736.03</ele>
        <time>2013-07-14T06:10:44Z</time>
      </trkpt>
      <trkpt lat="45.53258" lon="5.93296">
        <ele>736.03</ele>
        <time>2013-07-14T06:11:11Z</time>
      </trkpt>
      <trkpt lat="45.53257" lon="5.93296">
        <ele>737.47</ele>
        <time>2013-07-14T06:11:36Z</time>
      </trkpt>
      <trkpt lat="45.53256" lon="5.93307">
        <ele>738.91</ele>
        <time>2013-07-14T06:11:59Z</time>
      </trkpt>
      <trkpt lat="45.53256" lon="5.9331">
        <ele>740.35</ele>
        <time>2013-07-14T06:12:21Z</time>
      </trkpt>
      <trkpt lat="45.53258" lon="5.9331">
        <ele>740.35</ele>
        <time>2013-07-14T06:12:23Z</time>
      </trkpt>
      <trkpt lat="45.53293" lon="5.93314">
        <ele>736.03</ele>
        <time>2013-07-14T06:12:39Z</time>
      </trkpt>
      <trkpt lat="45.53333" lon="5.9331">
        <ele>734.58</ele>
        <time>2013-07-14T06:12:56Z</time>
      </trkpt>
      <trkpt lat="45.53363" lon="5.93301">
        <ele>733.62</ele>
        <time>2013-07-14T06:13:12Z</time>
      </trkpt>
      <trkpt lat="45.53396" lon="5.93312">
        <ele>731.7</ele>
        <time>2013-07-14T06:13:27Z</time>
      </trkpt>
      <trkpt lat="45.53404" lon="5.93316">
        <ele>730.74</ele>
        <time>2013-07-14T06:13:40Z</time>
      </trkpt>
      <trkpt lat="45.53427" lon="5.93329">
        <ele>726.41</ele>
        <time>2013-07-14T06:13:55Z</time>
      </trkpt>
      <trkpt lat="45.5345" lon="5.9334">
        <ele>720.65</ele>
        <time>2013-07-14T06:14:09Z</time>
      </trkpt>
      <trkpt lat="45.53459" lon="5.93335">
        <ele>717.28</ele>
        <time>2013-07-14T06:14:22Z</time>
      </trkpt>
      <trkpt lat="45.5348" lon="5.93328">
        <ele>714.4</ele>
        <time>2013-07-14T06:14:39Z</time>
      </trkpt>
      <trkpt lat="45.53507" lon="5.93323">
        <ele>708.15</ele>
        <time>2013-07-14T06:14:57Z</time>
      </trkpt>
      <trkpt lat="45.53527" lon="5.93328">
        <ele>701.42</ele>
        <time>2013-07-14T06:15:11Z</time>
      </trkpt>
      <trkpt lat="45.53547" lon="5.93332">
        <ele>696.13</ele>
        <time>2013-07-14T06:15:27Z</time>
      </trkpt>
      <trkpt lat="45.53551" lon="5.93331">
        <ele>694.69</ele>
        <time>2013-07-14T06:15:37Z</time>
      </trkpt>
      <trkpt lat="45.53551" lon="5.93331">
        <ele>693.73</ele>
        <time>2013-07-14T06:15:40Z</time>
      </trkpt>
      <trkpt lat="45.53543" lon="5.93353">
        <ele>690.36</ele>
        <time>2013-07-14T06:15:56Z</time>
      </trkpt>
      <trkpt lat="45.5353" lon="5.93385">
        <ele>684.6</ele>
        <time>2013-07-14T06:16:15Z</time>
      </trkpt>
      <trkpt lat="45.53521" lon="5.93412">
        <ele>680.75</ele>
        <time>2013-07-14T06:16:30Z</time>
      </trkpt>
      <trkpt lat="45.53521" lon="5.93422">
        <ele>678.83</ele>
        <time>2013-07-14T06:16:35Z</time>
      </trkpt>
      <trkpt lat="45.53518" lon="5.93446">
        <ele>675.46</ele>
        <time>2013-07-14T06:16:47Z</time>
      </trkpt>
      <trkpt lat="45.53513" lon="5.93471">
        <ele>672.1</ele>
        <time>2013-07-14T06:16:59Z</time>
      </trkpt>
      <trkpt lat="45.53517" lon="5.93482">
        <ele>670.18</ele>
        <time>2013-07-14T06:17:03Z</time>
      </trkpt>
      <trkpt lat="45.53519" lon="5.93487">
        <ele>669.7</ele>
        <time>2013-07-14T06:17:05Z</time>
      </trkpt>
      <trkpt lat="45.53533" lon="5.9349">
        <ele>662.97</ele>
        <time>2013-07-14T06:17:19Z</time>
      </trkpt>
      <trkpt lat="45.53537" lon="5.93486">
        <ele>661.52</ele>
        <time>2013-07-14T06:17:27Z</time>
      </trkpt>
      <trkpt lat="45.53556" lon="5.93487">
        <ele>659.6</ele>
        <time>2013-07-14T06:17:42Z</time>
      </trkpt>
      <trkpt lat="45.5356" lon="5.9349">
        <ele>659.6</ele>
        <time>2013-07-14T06:17:45Z</time>
      </trkpt>
      <trkpt lat="45.53583" lon="5.93499">
        <ele>655.28</ele>
        <time>2013-07-14T06:18:04Z</time>
      </trkpt>
      <trkpt lat="45.53607" lon="5.93509">
        <ele>648.07</ele>
        <time>2013-07-14T06:18:21Z</time>
      </trkpt>
      <trkpt lat="45.53627" lon="5.93504">
        <ele>643.26</ele>
        <time>2013-07-14T06:18:40Z</time>
      </trkpt>
      <trkpt lat="45.53639" lon="5.93513">
        <ele>640.38</ele>
        <time>2013-07-14T06:18:57Z</time>
      </trkpt>
      <trkpt lat="45.53641" lon="5.93517">
        <ele>639.41</ele>
        <time>2013-07-14T06:19:18Z</time>
      </trkpt>
      <trkpt lat="45.53643" lon="5.93524">
        <ele>638.93</ele>
        <time>2013-07-14T06:19:28Z</time>
      </trkpt>
      <trkpt lat="45.53656" lon="5.9354">
        <ele>638.45</ele>
        <time>2013-07-14T06:19:45Z</time>
      </trkpt>
      <trkpt lat="45.53677" lon="5.93553">
        <ele>630.76</ele>
        <time>2013-07-14T06:20:03Z</time>
      </trkpt>
      <trkpt lat="45.53693" lon="5.93542">
        <ele>627.4</ele>
        <time>2013-07-14T06:20:17Z</time>
      </trkpt>
      <trkpt lat="45.53693" lon="5.93538">
        <ele>625.96</ele>
        <time>2013-07-14T06:20:28Z</time>
      </trkpt>
      <trkpt lat="45.53692" lon="5.93529">
        <ele>624.99</ele>
        <time>2013-07-14T06:20:46Z</time>
      </trkpt>
      <trkpt lat="45.53687" lon="5.93519">
        <ele>624.03</ele>
        <time>2013-07-14T06:20:54Z</time>
      </trkpt>
      <trkpt lat="45.53687" lon="5.93514">
        <ele>624.03</ele>
        <time>2013-07-14T06:20:57Z</time>
      </trkpt>
      <trkpt lat="45.53701" lon="5.93476">
        <ele>622.11</ele>
        <time>2013-07-14T06:21:15Z</time>
      </trkpt>
      <trkpt lat="45.5371" lon="5.93452">
        <ele>618.26</ele>
        <time>2013-07-14T06:21:30Z</time>
      </trkpt>
      <trkpt lat="45.53711" lon="5.9345">
        <ele>615.86</ele>
        <time>2013-07-14T06:21:43Z</time>
      </trkpt>
      <trkpt lat="45.53718" lon="5.93451">
        <ele>613.94</ele>
        <time>2013-07-14T06:21:52Z</time>
      </trkpt>
      <trkpt lat="45.53751" lon="5.93463">
        <ele>610.57</ele>
        <time>2013-07-14T06:22:07Z</time>
      </trkpt>
      <trkpt lat="45.53773" lon="5.93478">
        <ele>603.85</ele>
        <time>2013-07-14T06:22:22Z</time>
      </trkpt>
      <trkpt lat="45.53783" lon="5.93485">
        <ele>600.96</ele>
        <time>2013-07-14T06:22:30Z</time>
      </trkpt>
      <trkpt lat="45.53788" lon="5.93488">
        <ele>599.52</ele>
        <time>2013-07-14T06:22:33Z</time>
      </trkpt>
      <trkpt lat="45.53807" lon="5.93502">
        <ele>595.19</ele>
        <time>2013-07-14T06:22:46Z</time>
      </trkpt>
      <trkpt lat="45.5383" lon="5.93522">
        <ele>587.02</ele>
        <time>2013-07-14T06:23:03Z</time>
      </trkpt>
      <trkpt lat="45.53856" lon="5.93525">
        <ele>577.89</ele>
        <time>2013-07-14T06:23:20Z</time>
      </trkpt>
      <trkpt lat="45.53879" lon="5.93533">
        <ele>570.68</ele>
        <time>2013-07-14T06:23:32Z</time>
      </trkpt>
      <trkpt lat="45.53905" lon="5.93536">
        <ele>558.18</ele>
        <time>2013-07-14T06:23:50Z</time>
      </trkpt>
      <trkpt lat="45.53909" lon="5.93533">
        <ele>555.78</ele>
        <time>2013-07-14T06:24:08Z</time>
      </trkpt>
      <trkpt lat="45.53927" lon="5.93536">
        <ele>551.93</ele>
        <time>2013-07-14T06:24:28Z</time>
      </trkpt>
      <trkpt lat="45.53947" lon="5.93544">
        <ele>549.05</ele>
        <time>2013-07-14T06:24:47Z</time>
      </trkpt>
      <trkpt lat="45.53976" lon="5.93553">
        <ele>544.24</ele>
        <time>2013-07-14T06:25:09Z</time>
      </trkpt>
      <trkpt lat="45.54008" lon="5.9357">
        <ele>536.55</ele>
        <time>2013-07-14T06:25:30Z</time>
      </trkpt>
      <trkpt lat="45.54021" lon="5.93577">
        <ele>533.19</ele>
        <time>2013-07-14T06:25:38Z</time>
      </trkpt>
      <trkpt lat="45.54045" lon="5.93602">
        <ele>526.46</ele>
        <time>2013-07-14T06:25:58Z</time>
      </trkpt>
      <trkpt lat="45.54076" lon="5.93628">
        <ele>519.25</ele>
        <time>2013-07-14T06:26:21Z</time>
      </trkpt>
      <trkpt lat="45.54085" lon="5.93635">
        <ele>515.88</ele>
        <time>2013-07-14T06:26:29Z</time>
      </trkpt>
      <trkpt lat="45.54104" lon="5.93618">
        <ele>500.02</ele>
        <time>2013-07-14T06:26:46Z</time>
      </trkpt>
      <trkpt lat="45.54108" lon="5.93586">
        <ele>491.37</ele>
        <time>2013-07-14T06:27:01Z</time>
      </trkpt>
      <trkpt lat="45.54108" lon="5.93575">
        <ele>488.49</ele>
        <time>2013-07-14T06:27:10Z</time>
      </trkpt>
      <trkpt lat="45.54106" lon="5.93569">
        <ele>486.56</ele>
        <time>2013-07-14T06:27:15Z</time>
      </trkpt>
      <trkpt lat="45.5411" lon="5.93575">
        <ele>483.68</ele>
        <time>2013-07-14T06:27:31Z</time>
      </trkpt>
      <trkpt lat="45.54115" lon="5.93579">
        <ele>482.72</ele>
        <time>2013-07-14T06:27:55Z</time>
      </trkpt>
      <trkpt lat="45.54133" lon="5.93594">
        <ele>485.12</ele>
        <time>2013-07-14T06:28:10Z</time>
      </trkpt>
      <trkpt lat="45.54126" lon="5.93588">
        <ele>483.68</ele>
        <time>2013-07-14T06:28:17Z</time>
      </trkpt>
      <trkpt lat="45.54109" lon="5.93569">
        <ele>482.72</ele>
        <time>2013-07-14T06:28:31Z</time>
      </trkpt>
      <trkpt lat="45.54096" lon="5.93556">
        <ele>482.24</ele>
        <time>2013-07-14T06:28:43Z</time>
      </trkpt>
      <trkpt lat="45.54078" lon="5.93533">
        <ele>478.39</ele>
        <time>2013-07-14T06:28:59Z</time>
      </trkpt>
      <trkpt lat="45.54072" lon="5.93522">
        <ele>478.87</ele>
        <time>2013-07-14T06:29:13Z</time>
      </trkpt>
      <trkpt lat="45.54057" lon="5.93501">
        <ele>483.2</ele>
        <time>2013-07-14T06:29:28Z</time>
      </trkpt>
      <trkpt lat="45.54056" lon="5.935">
        <ele>483.68</ele>
        <time>2013-07-14T06:29:31Z</time>
      </trkpt>
      <trkpt lat="45.54037" lon="5.93475">
        <ele>487.53</ele>
        <time>2013-07-14T06:29:49Z</time>
      </trkpt>
      <trkpt lat="45.54021" lon="5.93456">
        <ele>489.93</ele>
        <time>2013-07-14T06:30:05Z</time>
      </trkpt>
      <trkpt lat="45.54002" lon="5.93436">
        <ele>488.97</ele>
        <time>2013-07-14T06:30:21Z</time>
      </trkpt>
      <trkpt lat="45.5399" lon="5.93418">
        <ele>490.89</ele>
        <time>2013-07-14T06:30:38Z</time>
      </trkpt>
      <trkpt lat="45.53987" lon="5.93406">
        <ele>492.81</ele>
        <time>2013-07-14T06:30:52Z</time>
      </trkpt>
      <trkpt lat="45.53977" lon="5.93382">
        <ele>498.58</ele>
        <time>2013-07-14T06:31:09Z</time>
      </trkpt>
      <trkpt lat="45.53974" lon="5.93374">
        <ele>500.5</ele>
        <time>2013-07-14T06:31:14Z</time>
      </trkpt>
      <trkpt lat="45.53972" lon="5.93366">
        <ele>501.46</ele>
        <time>2013-07-14T06:31:19Z</time>
      </trkpt>
      <trkpt lat="45.53975" lon="5.93363">
        <ele>501.46</ele>
        <time>2013-07-14T06:31:25Z</time>
      </trkpt>
      <trkpt lat="45.53979" lon="5.93355">
        <ele>500.5</ele>
        <time>2013-07-14T06:31:30Z</time>
      </trkpt>
      <trkpt lat="45.53993" lon="5.93331">
        <ele>493.77</ele>
        <time>2013-07-14T06:31:46Z</time>
      </trkpt>
      <trkpt lat="45.53994" lon="5.9333">
        <ele>493.29</ele>
        <time>2013-07-14T06:31:47Z</time>
      </trkpt>
      <trkpt lat="45.54014" lon="5.93328">
        <ele>486.56</ele>
        <time>2013-07-14T06:32:04Z</time>
      </trkpt>
      <trkpt lat="45.54036" lon="5.93342">
        <ele>484.16</ele>
        <time>2013-07-14T06:32:21Z</time>
      </trkpt>
      <trkpt lat="45.54064" lon="5.93355">
        <ele>479.35</ele>
        <time>2013-07-14T06:32:41Z</time>
      </trkpt>
      <trkpt lat="45.54083" lon="5.93367">
        <ele>478.87</ele>
        <time>2013-07-14T06:32:58Z</time>
      </trkpt>
      <trkpt lat="45.54109" lon="5.93375">
        <ele>477.43</ele>
        <time>2013-07-14T06:33:17Z</time>
      </trkpt>
      <trkpt lat="45.54127" lon="5.93391">
        <ele>473.59</ele>
        <time>2013-07-14T06:33:34Z</time>
      </trkpt>
      <trkpt lat="45.5413" lon="5.93396">
        <ele>473.11</ele>
        <time>2013-07-14T06:33:37Z</time>
      </trkpt>
      <trkpt lat="45.54152" lon="5.93423">
        <ele>468.78</ele>
        <time>2013-07-14T06:33:57Z</time>
      </trkpt>
      <trkpt lat="45.5417" lon="5.93433">
        <ele>470.22</ele>
        <time>2013-07-14T06:34:10Z</time>
      </trkpt>
      <trkpt lat="45.54189" lon="5.93457">
        <ele>469.26</ele>
        <time>2013-07-14T06:34:27Z</time>
      </trkpt>
      <trkpt lat="45.54202" lon="5.93488">
        <ele>463.97</ele>
        <time>2013-07-14T06:34:46Z</time>
      </trkpt>
      <trkpt lat="45.54223" lon="5.93514">
        <ele>461.09</ele>
        <time>2013-07-14T06:35:07Z</time>
      </trkpt>
      <trkpt lat="45.54246" lon="5.93533">
        <ele>457.72</ele>
        <time>2013-07-14T06:35:27Z</time>
      </trkpt>
      <trkpt lat="45.54277" lon="5.93541">
        <ele>458.21</ele>
        <time>2013-07-14T06:35:49Z</time>
      </trkpt>
      <trkpt lat="45.54298" lon="5.93547">
        <ele>459.17</ele>
        <time>2013-07-14T06:36:05Z</time>
      </trkpt>
      <trkpt lat="45.54321" lon="5.93555">
        <ele>456.28</ele>
        <time>2013-07-14T06:36:21Z</time>
      </trkpt>
      <trkpt lat="45.54342" lon="5.93559">
        <ele>454.36</ele>
        <time>2013-07-14T06:36:37Z</time>
      </trkpt>
      <trkpt lat="45.54352" lon="5.93561">
        <ele>453.4</ele>
        <time>2013-07-14T06:36:45Z</time>
      </trkpt>
      <trkpt lat="45.54364" lon="5.93559">
        <ele>452.44</ele>
        <time>2013-07-14T06:36:53Z</time>
      </trkpt>
      <trkpt lat="45.5438" lon="5.93559">
        <ele>450.52</ele>
        <time>2013-07-14T06:37:06Z</time>
      </trkpt>
      <trkpt lat="45.54381" lon="5.9356">
        <ele>450.52</ele>
        <time>2013-07-14T06:37:07Z</time>
      </trkpt>
      <trkpt lat="45.54393" lon="5.93566">
        <ele>449.55</ele>
        <time>2013-07-14T06:37:16Z</time>
      </trkpt>
      <trkpt lat="45.54404" lon="5.93562">
        <ele>453.4</ele>
        <time>2013-07-14T06:37:29Z</time>
      </trkpt>
      <trkpt lat="45.54406" lon="5.9356">
        <ele>453.88</ele>
        <time>2013-07-14T06:37:38Z</time>
      </trkpt>
      <trkpt lat="45.54408" lon="5.93558">
        <ele>453.88</ele>
        <time>2013-07-14T06:37:41Z</time>
      </trkpt>
      <trkpt lat="45.54413" lon="5.93556">
        <ele>453.88</ele>
        <time>2013-07-14T06:37:45Z</time>
      </trkpt>
      <trkpt lat="45.54426" lon="5.93549">
        <ele>457.72</ele>
        <time>2013-07-14T06:37:57Z</time>
      </trkpt>
      <trkpt lat="45.54442" lon="5.9354">
        <ele>462.53</ele>
        <time>2013-07-14T06:38:11Z</time>
      </trkpt>
      <trkpt lat="45.54454" lon="5.93534">
        <ele>464.93</ele>
        <time>2013-07-14T06:38:24Z</time>
      </trkpt>
      <trkpt lat="45.54457" lon="5.93531">
        <ele>466.38</ele>
        <time>2013-07-14T06:38:28Z</time>
      </trkpt>
      <trkpt lat="45.5447" lon="5.93524">
        <ele>470.7</ele>
        <time>2013-07-14T06:38:40Z</time>
      </trkpt>
      <trkpt lat="45.54482" lon="5.93516">
        <ele>472.14</ele>
        <time>2013-07-14T06:38:52Z</time>
      </trkpt>
      <trkpt lat="45.54493" lon="5.93511">
        <ele>475.03</ele>
        <time>2013-07-14T06:39:05Z</time>
      </trkpt>
      <trkpt lat="45.54497" lon="5.93509">
        <ele>475.99</ele>
        <time>2013-07-14T06:39:09Z</time>
      </trkpt>
      <trkpt lat="45.54514" lon="5.93498">
        <ele>480.32</ele>
        <time>2013-07-14T06:39:28Z</time>
      </trkpt>
      <trkpt lat="45.54521" lon="5.93496">
        <ele>482.72</ele>
        <time>2013-07-14T06:39:38Z</time>
      </trkpt>
      <trkpt lat="45.54528" lon="5.93494">
        <ele>484.64</ele>
        <time>2013-07-14T06:39:45Z</time>
      </trkpt>
      <trkpt lat="45.54543" lon="5.93466">
        <ele>488.97</ele>
        <time>2013-07-14T06:40:04Z</time>
      </trkpt>
      <trkpt lat="45.54545" lon="5.93462">
        <ele>488.49</ele>
        <time>2013-07-14T06:40:06Z</time>
      </trkpt>
      <trkpt lat="45.54554" lon="5.93432">
        <ele>489.93</ele>
        <time>2013-07-14T06:40:24Z</time>
      </trkpt>
      <trkpt lat="45.54549" lon="5.9341">
        <ele>490.89</ele>
        <time>2013-07-14T06:40:38Z</time>
      </trkpt>
      <trkpt lat="45.54547" lon="5.93393">
        <ele>493.77</ele>
        <time>2013-07-14T06:40:50Z</time>
      </trkpt>
      <trkpt lat="45.54542" lon="5.93372">
        <ele>495.7</ele>
        <time>2013-07-14T06:41:05Z</time>
      </trkpt>
      <trkpt lat="45.5454" lon="5.93352">
        <ele>498.58</ele>
        <time>2013-07-14T06:41:20Z</time>
      </trkpt>
      <trkpt lat="45.5454" lon="5.93323">
        <ele>502.43</ele>
        <time>2013-07-14T06:41:41Z</time>
      </trkpt>
      <trkpt lat="45.54536" lon="5.93298">
        <ele>503.87</ele>
        <time>2013-07-14T06:42:00Z</time>
      </trkpt>
      <trkpt lat="45.54536" lon="5.9327">
        <ele>506.75</ele>
        <time>2013-07-14T06:42:22Z</time>
      </trkpt>
      <trkpt lat="45.54538" lon="5.93246">
        <ele>511.56</ele>
        <time>2013-07-14T06:42:43Z</time>
      </trkpt>
      <trkpt lat="45.5454" lon="5.93224">
        <ele>515.88</ele>
        <time>2013-07-14T06:42:59Z</time>
      </trkpt>
      <trkpt lat="45.54544" lon="5.93208">
        <ele>519.73</ele>
        <time>2013-07-14T06:43:16Z</time>
      </trkpt>
      <trkpt lat="45.54545" lon="5.93193">
        <ele>522.61</ele>
        <time>2013-07-14T06:43:32Z</time>
      </trkpt>
      <trkpt lat="45.54543" lon="5.93177">
        <ele>525.98</ele>
        <time>2013-07-14T06:43:42Z</time>
      </trkpt>
      <trkpt lat="45.54535" lon="5.9315">
        <ele>532.23</ele>
        <time>2013-07-14T06:44:02Z</time>
      </trkpt>
      <trkpt lat="45.54529" lon="5.93139">
        <ele>535.11</ele>
        <time>2013-07-14T06:44:15Z</time>
      </trkpt>
      <trkpt lat="45.54541" lon="5.93143">
        <ele>535.11</ele>
        <time>2013-07-14T06:44:27Z</time>
      </trkpt>
      <trkpt lat="45.54556" lon="5.93141">
        <ele>533.67</ele>
        <time>2013-07-14T06:44:38Z</time>
      </trkpt>
      <trkpt lat="45.54572" lon="5.93141">
        <ele>534.15</ele>
        <time>2013-07-14T06:44:52Z</time>
      </trkpt>
      <trkpt lat="45.54575" lon="5.93142">
        <ele>533.67</ele>
        <time>2013-07-14T06:45:02Z</time>
      </trkpt>
      <trkpt lat="45.54576" lon="5.93144">
        <ele>534.15</ele>
        <time>2013-07-14T06:45:06Z</time>
      </trkpt>
      <trkpt lat="45.5458" lon="5.93146">
        <ele>534.63</ele>
        <time>2013-07-14T06:45:10Z</time>
      </trkpt>
      <trkpt lat="45.54603" lon="5.93152">
        <ele>534.63</ele>
        <time>2013-07-14T06:45:28Z</time>
      </trkpt>
      <trkpt lat="45.54624" lon="5.93161">
        <ele>534.63</ele>
        <time>2013-07-14T06:45:47Z</time>
      </trkpt>
      <trkpt lat="45.54647" lon="5.93157">
        <ele>533.19</ele>
        <time>2013-07-14T06:46:05Z</time>
      </trkpt>
      <trkpt lat="45.54649" lon="5.93156">
        <ele>533.19</ele>
        <time>2013-07-14T06:46:06Z</time>
      </trkpt>
      <trkpt lat="45.54661" lon="5.93154">
        <ele>533.67</ele>
        <time>2013-07-14T06:46:14Z</time>
      </trkpt>
      <trkpt lat="45.54687" lon="5.93167">
        <ele>532.23</ele>
        <time>2013-07-14T06:46:33Z</time>
      </trkpt>
      <trkpt lat="45.54703" lon="5.93183">
        <ele>531.27</ele>
        <time>2013-07-14T06:46:47Z</time>
      </trkpt>
      <trkpt lat="45.54725" lon="5.93194">
        <ele>530.3</ele>
        <time>2013-07-14T06:47:05Z</time>
      </trkpt>
      <trkpt lat="45.54729" lon="5.93201">
        <ele>529.34</ele>
        <time>2013-07-14T06:47:16Z</time>
      </trkpt>
      <trkpt lat="45.54732" lon="5.93206">
        <ele>529.34</ele>
        <time>2013-07-14T06:47:19Z</time>
      </trkpt>
      <trkpt lat="45.54747" lon="5.93214">
        <ele>525.98</ele>
        <time>2013-07-14T06:47:32Z</time>
      </trkpt>
      <trkpt lat="45.54751" lon="5.93232">
        <ele>521.65</ele>
        <time>2013-07-14T06:47:43Z</time>
      </trkpt>
      <trkpt lat="45.54753" lon="5.9324">
        <ele>519.73</ele>
        <time>2013-07-14T06:47:47Z</time>
      </trkpt>
      <trkpt lat="45.54769" lon="5.93254">
        <ele>513.96</ele>
        <time>2013-07-14T06:48:01Z</time>
      </trkpt>
      <trkpt lat="45.54786" lon="5.93267">
        <ele>509.64</ele>
        <time>2013-07-14T06:48:15Z</time>
      </trkpt>
      <trkpt lat="45.54791" lon="5.93272">
        <ele>508.67</ele>
        <time>2013-07-14T06:48:19Z</time>
      </trkpt>
      <trkpt lat="45.54794" lon="5.93273">
        <ele>508.19</ele>
        <time>2013-07-14T06:48:21Z</time>
      </trkpt>
      <trkpt lat="45.54808" lon="5.9329">
        <ele>505.79</ele>
        <time>2013-07-14T06:48:34Z</time>
      </trkpt>
      <trkpt lat="45.54791" lon="5.93303">
        <ele>501.95</ele>
        <time>2013-07-14T06:48:48Z</time>
      </trkpt>
      <trkpt lat="45.54782" lon="5.93313">
        <ele>499.54</ele>
        <time>2013-07-14T06:49:02Z</time>
      </trkpt>
      <trkpt lat="45.54779" lon="5.93335">
        <ele>497.14</ele>
        <time>2013-07-14T06:49:12Z</time>
      </trkpt>
      <trkpt lat="45.54784" lon="5.9336">
        <ele>497.14</ele>
        <time>2013-07-14T06:49:25Z</time>
      </trkpt>
      <trkpt lat="45.5478" lon="5.93377">
        <ele>494.74</ele>
        <time>2013-07-14T06:49:35Z</time>
      </trkpt>
      <trkpt lat="45.54771" lon="5.93396">
        <ele>490.89</ele>
        <time>2013-07-14T06:49:46Z</time>
      </trkpt>
      <trkpt lat="45.54776" lon="5.93417">
        <ele>485.12</ele>
        <time>2013-07-14T06:49:56Z</time>
      </trkpt>
      <trkpt lat="45.54785" lon="5.93435">
        <ele>479.84</ele>
        <time>2013-07-14T06:50:06Z</time>
      </trkpt>
      <trkpt lat="45.54799" lon="5.93459">
        <ele>475.03</ele>
        <time>2013-07-14T06:50:24Z</time>
      </trkpt>
      <trkpt lat="45.54819" lon="5.93455">
        <ele>471.66</ele>
        <time>2013-07-14T06:50:38Z</time>
      </trkpt>
      <trkpt lat="45.54839" lon="5.93457">
        <ele>469.74</ele>
        <time>2013-07-14T06:50:52Z</time>
      </trkpt>
      <trkpt lat="45.54862" lon="5.93454">
        <ele>469.26</ele>
        <time>2013-07-14T06:51:08Z</time>
      </trkpt>
      <trkpt lat="45.54884" lon="5.93448">
        <ele>469.26</ele>
        <time>2013-07-14T06:51:24Z</time>
      </trkpt>
      <trkpt lat="45.54907" lon="5.93439">
        <ele>468.78</ele>
        <time>2013-07-14T06:51:41Z</time>
      </trkpt>
      <trkpt lat="45.54922" lon="5.9343">
        <ele>468.3</ele>
        <time>2013-07-14T06:51:54Z</time>
      </trkpt>
      <trkpt lat="45.54923" lon="5.93432">
        <ele>469.26</ele>
        <time>2013-07-14T06:52:10Z</time>
      </trkpt>
      <trkpt lat="45.54925" lon="5.93435">
        <ele>468.78</ele>
        <time>2013-07-14T06:52:14Z</time>
      </trkpt>
      <trkpt lat="45.54934" lon="5.93446">
        <ele>466.86</ele>
        <time>2013-07-14T06:52:25Z</time>
      </trkpt>
      <trkpt lat="45.54948" lon="5.93442">
        <ele>463.49</ele>
        <time>2013-07-14T06:52:40Z</time>
      </trkpt>
      <trkpt lat="45.54974" lon="5.93437">
        <ele>462.53</ele>
        <time>2013-07-14T06:52:53Z</time>
      </trkpt>
      <trkpt lat="45.54994" lon="5.93439">
        <ele>462.53</ele>
        <time>2013-07-14T06:53:07Z</time>
      </trkpt>
      <trkpt lat="45.55013" lon="5.93436">
        <ele>466.38</ele>
        <time>2013-07-14T06:53:23Z</time>
      </trkpt>
      <trkpt lat="45.55026" lon="5.93428">
        <ele>468.3</ele>
        <time>2013-07-14T06:53:35Z</time>
      </trkpt>
      <trkpt lat="45.55034" lon="5.93423">
        <ele>468.78</ele>
        <time>2013-07-14T06:53:41Z</time>
      </trkpt>
      <trkpt lat="45.55061" lon="5.93411">
        <ele>470.22</ele>
        <time>2013-07-14T06:53:57Z</time>
      </trkpt>
      <trkpt lat="45.55063" lon="5.93405">
        <ele>470.22</ele>
        <time>2013-07-14T06:54:09Z</time>
      </trkpt>
      <trkpt lat="45.55083" lon="5.93412">
        <ele>466.38</ele>
        <time>2013-07-14T06:54:28Z</time>
      </trkpt>
      <trkpt lat="45.55098" lon="5.93412">
        <ele>460.13</ele>
        <time>2013-07-14T06:54:40Z</time>
      </trkpt>
      <trkpt lat="45.55122" lon="5.93403">
        <ele>456.28</ele>
        <time>2013-07-14T06:54:57Z</time>
      </trkpt>
      <trkpt lat="45.55135" lon="5.93399">
        <ele>453.4</ele>
        <time>2013-07-14T06:55:07Z</time>
      </trkpt>
      <trkpt lat="45.55146" lon="5.93419">
        <ele>450.03</ele>
        <time>2013-07-14T06:55:22Z</time>
      </trkpt>
      <trkpt lat="45.55158" lon="5.93437">
        <ele>446.19</ele>
        <time>2013-07-14T06:55:37Z</time>
      </trkpt>
      <trkpt lat="45.55176" lon="5.93447">
        <ele>442.34</ele>
        <time>2013-07-14T06:55:52Z</time>
      </trkpt>
      <trkpt lat="45.552" lon="5.93451">
        <ele>437.54</ele>
        <time>2013-07-14T06:56:12Z</time>
      </trkpt>
      <trkpt lat="45.55208" lon="5.93449">
        <ele>435.61</ele>
        <time>2013-07-14T06:56:22Z</time>
      </trkpt>
      <trkpt lat="45.55228" lon="5.93458">
        <ele>432.73</ele>
        <time>2013-07-14T06:56:39Z</time>
      </trkpt>
      <trkpt lat="45.55232" lon="5.9346">
        <ele>431.77</ele>
        <time>2013-07-14T06:56:43Z</time>
      </trkpt>
      <trkpt lat="45.55253" lon="5.93475">
        <ele>427.92</ele>
        <time>2013-07-14T06:56:58Z</time>
      </trkpt>
      <trkpt lat="45.55273" lon="5.93493">
        <ele>421.19</ele>
        <time>2013-07-14T06:57:17Z</time>
      </trkpt>
      <trkpt lat="45.55296" lon="5.93505">
        <ele>416.39</ele>
        <time>2013-07-14T06:57:34Z</time>
      </trkpt>
      <trkpt lat="45.55312" lon="5.93508">
        <ele>413.5</ele>
        <time>2013-07-14T06:57:50Z</time>
      </trkpt>
      <trkpt lat="45.55315" lon="5.93507">
        <ele>415.43</ele>
        <time>2013-07-14T06:58:13Z</time>
      </trkpt>
      <trkpt lat="45.55317" lon="5.93507">
        <ele>417.83</ele>
        <time>2013-07-14T06:58:36Z</time>
      </trkpt>
      <trkpt lat="45.55317" lon="5.93506">
        <ele>417.83</ele>
        <time>2013-07-14T06:58:45Z</time>
      </trkpt>
      <trkpt lat="45.55318" lon="5.93501">
        <ele>417.35</ele>
        <time>2013-07-14T06:58:51Z</time>
      </trkpt>
      <trkpt lat="45.55314" lon="5.93482">
        <ele>418.31</ele>
        <time>2013-07-14T06:59:05Z</time>
      </trkpt>
      <trkpt lat="45.55311" lon="5.93453">
        <ele>421.19</ele>
        <time>2013-07-14T06:59:24Z</time>
      </trkpt>
      <trkpt lat="45.55307" lon="5.93427">
        <ele>426.48</ele>
        <time>2013-07-14T06:59:42Z</time>
      </trkpt>
      <trkpt lat="45.55305" lon="5.93392">
        <ele>426.96</ele>
        <time>2013-07-14T07:00:01Z</time>
      </trkpt>
      <trkpt lat="45.55302" lon="5.93362">
        <ele>428.4</ele>
        <time>2013-07-14T07:00:18Z</time>
      </trkpt>
      <trkpt lat="45.55304" lon="5.93326">
        <ele>429.37</ele>
        <time>2013-07-14T07:00:38Z</time>
      </trkpt>
      <trkpt lat="45.55303" lon="5.93292">
        <ele>425.52</ele>
        <time>2013-07-14T07:00:55Z</time>
      </trkpt>
      <trkpt lat="45.55296" lon="5.93257">
        <ele>422.16</ele>
        <time>2013-07-14T07:01:12Z</time>
      </trkpt>
      <trkpt lat="45.55285" lon="5.93229">
        <ele>421.19</ele>
        <time>2013-07-14T07:01:30Z</time>
      </trkpt>
      <trkpt lat="45.55276" lon="5.93217">
        <ele>422.16</ele>
        <time>2013-07-14T07:01:38Z</time>
      </trkpt>
      <trkpt lat="45.55258" lon="5.9319">
        <ele>421.68</ele>
        <time>2013-07-14T07:01:55Z</time>
      </trkpt>
      <trkpt lat="45.55249" lon="5.93169">
        <ele>421.19</ele>
        <time>2013-07-14T07:02:09Z</time>
      </trkpt>
      <trkpt lat="45.55237" lon="5.93143">
        <ele>419.75</ele>
        <time>2013-07-14T07:02:26Z</time>
      </trkpt>
      <trkpt lat="45.55219" lon="5.93117">
        <ele>419.75</ele>
        <time>2013-07-14T07:02:45Z</time>
      </trkpt>
      <trkpt lat="45.55217" lon="5.93115">
        <ele>419.75</ele>
        <time>2013-07-14T07:02:46Z</time>
      </trkpt>
      <trkpt lat="45.552" lon="5.9309">
        <ele>418.31</ele>
        <time>2013-07-14T07:03:04Z</time>
      </trkpt>
      <trkpt lat="45.55194" lon="5.93086">
        <ele>417.35</ele>
        <time>2013-07-14T07:03:08Z</time>
      </trkpt>
      <trkpt lat="45.55169" lon="5.93064">
        <ele>415.91</ele>
        <time>2013-07-14T07:03:28Z</time>
      </trkpt>
      <trkpt lat="45.55151" lon="5.93047">
        <ele>415.91</ele>
        <time>2013-07-14T07:03:43Z</time>
      </trkpt>
      <trkpt lat="45.55146" lon="5.9304">
        <ele>414.95</ele>
        <time>2013-07-14T07:03:49Z</time>
      </trkpt>
      <trkpt lat="45.55134" lon="5.93011">
        <ele>414.95</ele>
        <time>2013-07-14T07:04:06Z</time>
      </trkpt>
      <trkpt lat="45.55129" lon="5.93002">
        <ele>415.43</ele>
        <time>2013-07-14T07:04:13Z</time>
      </trkpt>
      <trkpt lat="45.55113" lon="5.92983">
        <ele>416.87</ele>
        <time>2013-07-14T07:04:30Z</time>
      </trkpt>
      <trkpt lat="45.55089" lon="5.92958">
        <ele>419.27</ele>
        <time>2013-07-14T07:04:47Z</time>
      </trkpt>
      <trkpt lat="45.55072" lon="5.9293">
        <ele>421.19</ele>
        <time>2013-07-14T07:05:04Z</time>
      </trkpt>
      <trkpt lat="45.55066" lon="5.92912">
        <ele>423.12</ele>
        <time>2013-07-14T07:05:14Z</time>
      </trkpt>
      <trkpt lat="45.55036" lon="5.92897">
        <ele>423.6</ele>
        <time>2013-07-14T07:05:31Z</time>
      </trkpt>
      <trkpt lat="45.55029" lon="5.92891">
        <ele>425.52</ele>
        <time>2013-07-14T07:05:45Z</time>
      </trkpt>
      <trkpt lat="45.55043" lon="5.92882">
        <ele>430.33</ele>
        <time>2013-07-14T07:05:57Z</time>
      </trkpt>
      <trkpt lat="45.55053" lon="5.92861">
        <ele>434.65</ele>
        <time>2013-07-14T07:06:13Z</time>
      </trkpt>
      <trkpt lat="45.55059" lon="5.92855">
        <ele>434.17</ele>
        <time>2013-07-14T07:06:31Z</time>
      </trkpt>
      <trkpt lat="45.55081" lon="5.92849">
        <ele>432.25</ele>
        <time>2013-07-14T07:06:51Z</time>
      </trkpt>
      <trkpt lat="45.55095" lon="5.92842">
        <ele>434.65</ele>
        <time>2013-07-14T07:07:04Z</time>
      </trkpt>
      <trkpt lat="45.55113" lon="5.92826">
        <ele>436.1</ele>
        <time>2013-07-14T07:07:20Z</time>
      </trkpt>
      <trkpt lat="45.55133" lon="5.92806">
        <ele>436.58</ele>
        <time>2013-07-14T07:07:36Z</time>
      </trkpt>
      <trkpt lat="45.55149" lon="5.92791">
        <ele>440.9</ele>
        <time>2013-07-14T07:07:52Z</time>
      </trkpt>
      <trkpt lat="45.55163" lon="5.92771">
        <ele>444.27</ele>
        <time>2013-07-14T07:08:09Z</time>
      </trkpt>
      <trkpt lat="45.55181" lon="5.9276">
        <ele>447.15</ele>
        <time>2013-07-14T07:08:29Z</time>
      </trkpt>
      <trkpt lat="45.55202" lon="5.92759">
        <ele>448.11</ele>
        <time>2013-07-14T07:08:47Z</time>
      </trkpt>
      <trkpt lat="45.55206" lon="5.92759">
        <ele>448.11</ele>
        <time>2013-07-14T07:08:49Z</time>
      </trkpt>
      <trkpt lat="45.55219" lon="5.92759">
        <ele>450.52</ele>
        <time>2013-07-14T07:08:58Z</time>
      </trkpt>
      <trkpt lat="45.55227" lon="5.92749">
        <ele>451.48</ele>
        <time>2013-07-14T07:09:12Z</time>
      </trkpt>
      <trkpt lat="45.55234" lon="5.92748">
        <ele>451.48</ele>
        <time>2013-07-14T07:09:24Z</time>
      </trkpt>
      <trkpt lat="45.55235" lon="5.92744">
        <ele>451.48</ele>
        <time>2013-07-14T07:09:45Z</time>
      </trkpt>
      <trkpt lat="45.5524" lon="5.92745">
        <ele>450.03</ele>
        <time>2013-07-14T07:09:58Z</time>
      </trkpt>
      <trkpt lat="45.55241" lon="5.92745">
        <ele>450.03</ele>
        <time>2013-07-14T07:09:59Z</time>
      </trkpt>
      <trkpt lat="45.55258" lon="5.92738">
        <ele>450.03</ele>
        <time>2013-07-14T07:10:15Z</time>
      </trkpt>
      <trkpt lat="45.5528" lon="5.92724">
        <ele>451.96</ele>
        <time>2013-07-14T07:10:34Z</time>
      </trkpt>
      <trkpt lat="45.55287" lon="5.92718">
        <ele>452.92</ele>
        <time>2013-07-14T07:10:39Z</time>
      </trkpt>
      <trkpt lat="45.55294" lon="5.9271">
        <ele>453.88</ele>
        <time>2013-07-14T07:10:45Z</time>
      </trkpt>
      <trkpt lat="45.55313" lon="5.92688">
        <ele>453.88</ele>
        <time>2013-07-14T07:11:03Z</time>
      </trkpt>
      <trkpt lat="45.55319" lon="5.92667">
        <ele>452.44</ele>
        <time>2013-07-14T07:11:16Z</time>
      </trkpt>
      <trkpt lat="45.55336" lon="5.92646">
        <ele>455.32</ele>
        <time>2013-07-14T07:11:33Z</time>
      </trkpt>
      <trkpt lat="45.5534" lon="5.9264">
        <ele>456.28</ele>
        <time>2013-07-14T07:11:37Z</time>
      </trkpt>
      <trkpt lat="45.55347" lon="5.92628">
        <ele>456.76</ele>
        <time>2013-07-14T07:11:46Z</time>
      </trkpt>
      <trkpt lat="45.5536" lon="5.92606">
        <ele>458.69</ele>
        <time>2013-07-14T07:12:02Z</time>
      </trkpt>
      <trkpt lat="45.55369" lon="5.92592">
        <ele>459.65</ele>
        <time>2013-07-14T07:12:18Z</time>
      </trkpt>
      <trkpt lat="45.55375" lon="5.92581">
        <ele>459.65</ele>
        <time>2013-07-14T07:12:35Z</time>
      </trkpt>
      <trkpt lat="45.55387" lon="5.92568">
        <ele>458.69</ele>
        <time>2013-07-14T07:12:51Z</time>
      </trkpt>
      <trkpt lat="45.55407" lon="5.92562">
        <ele>457.24</ele>
        <time>2013-07-14T07:13:07Z</time>
      </trkpt>
      <trkpt lat="45.55411" lon="5.92561">
        <ele>456.76</ele>
        <time>2013-07-14T07:13:11Z</time>
      </trkpt>
      <trkpt lat="45.55414" lon="5.9256">
        <ele>456.28</ele>
        <time>2013-07-14T07:13:13Z</time>
      </trkpt>
      <trkpt lat="45.55418" lon="5.92554">
        <ele>456.76</ele>
        <time>2013-07-14T07:13:18Z</time>
      </trkpt>
      <trkpt lat="45.55423" lon="5.92552">
        <ele>457.24</ele>
        <time>2013-07-14T07:13:22Z</time>
      </trkpt>
      <trkpt lat="45.55438" lon="5.92548">
        <ele>458.21</ele>
        <time>2013-07-14T07:13:34Z</time>
      </trkpt>
      <trkpt lat="45.55456" lon="5.92563">
        <ele>457.24</ele>
        <time>2013-07-14T07:13:52Z</time>
      </trkpt>
      <trkpt lat="45.55476" lon="5.92579">
        <ele>455.32</ele>
        <time>2013-07-14T07:14:11Z</time>
      </trkpt>
      <trkpt lat="45.55489" lon="5.92594">
        <ele>452.92</ele>
        <time>2013-07-14T07:14:25Z</time>
      </trkpt>
      <trkpt lat="45.55509" lon="5.92605">
        <ele>450.52</ele>
        <time>2013-07-14T07:14:42Z</time>
      </trkpt>
      <trkpt lat="45.55533" lon="5.92612">
        <ele>448.59</ele>
        <time>2013-07-14T07:14:59Z</time>
      </trkpt>
      <trkpt lat="45.55557" lon="5.92612">
        <ele>442.82</ele>
        <time>2013-07-14T07:15:18Z</time>
      </trkpt>
      <trkpt lat="45.55582" lon="5.9261">
        <ele>438.98</ele>
        <time>2013-07-14T07:15:36Z</time>
      </trkpt>
      <trkpt lat="45.55592" lon="5.92607">
        <ele>438.5</ele>
        <time>2013-07-14T07:15:44Z</time>
      </trkpt>
      <trkpt lat="45.556" lon="5.92604">
        <ele>437.54</ele>
        <time>2013-07-14T07:15:50Z</time>
      </trkpt>
      <trkpt lat="45.5562" lon="5.92579">
        <ele>434.17</ele>
        <time>2013-07-14T07:16:06Z</time>
      </trkpt>
      <trkpt lat="45.55639" lon="5.92551">
        <ele>428.89</ele>
        <time>2013-07-14T07:16:24Z</time>
      </trkpt>
      <trkpt lat="45.55654" lon="5.92532">
        <ele>425.52</ele>
        <time>2013-07-14T07:16:40Z</time>
      </trkpt>
      <trkpt lat="45.55671" lon="5.9252">
        <ele>422.64</ele>
        <time>2013-07-14T07:16:54Z</time>
      </trkpt>
      <trkpt lat="45.55698" lon="5.92511">
        <ele>424.08</ele>
        <time>2013-07-14T07:17:09Z</time>
      </trkpt>
      <trkpt lat="45.5571" lon="5.925">
        <ele>418.79</ele>
        <time>2013-07-14T07:17:28Z</time>
      </trkpt>
      <trkpt lat="45.5571" lon="5.92499">
        <ele>417.83</ele>
        <time>2013-07-14T07:17:29Z</time>
      </trkpt>
      <trkpt lat="45.55732" lon="5.92505">
        <ele>412.54</ele>
        <time>2013-07-14T07:17:47Z</time>
      </trkpt>
      <trkpt lat="45.55754" lon="5.92508">
        <ele>411.1</ele>
        <time>2013-07-14T07:18:05Z</time>
      </trkpt>
      <trkpt lat="45.55779" lon="5.92509">
        <ele>409.18</ele>
        <time>2013-07-14T07:18:23Z</time>
      </trkpt>
      <trkpt lat="45.55804" lon="5.92511">
        <ele>408.7</ele>
        <time>2013-07-14T07:18:43Z</time>
      </trkpt>
      <trkpt lat="45.55832" lon="5.92507">
        <ele>406.29</ele>
        <time>2013-07-14T07:19:02Z</time>
      </trkpt>
      <trkpt lat="45.55836" lon="5.92506">
        <ele>405.81</ele>
        <time>2013-07-14T07:19:06Z</time>
      </trkpt>
      <trkpt lat="45.55853" lon="5.9249">
        <ele>404.85</ele>
        <time>2013-07-14T07:19:22Z</time>
      </trkpt>
      <trkpt lat="45.55855" lon="5.9249">
        <ele>404.85</ele>
        <time>2013-07-14T07:19:23Z</time>
      </trkpt>
      <trkpt lat="45.5588" lon="5.92495">
        <ele>402.93</ele>
        <time>2013-07-14T07:19:42Z</time>
      </trkpt>
      <trkpt lat="45.55897" lon="5.92511">
        <ele>401.49</ele>
        <time>2013-07-14T07:19:58Z</time>
      </trkpt>
      <trkpt lat="45.55913" lon="5.92527">
        <ele>399.08</ele>
        <time>2013-07-14T07:20:15Z</time>
      </trkpt>
      <trkpt lat="45.5593" lon="5.9251">
        <ele>397.64</ele>
        <time>2013-07-14T07:20:29Z</time>
      </trkpt>
      <trkpt lat="45.55932" lon="5.92506">
        <ele>398.12</ele>
        <time>2013-07-14T07:20:32Z</time>
      </trkpt>
      <trkpt lat="45.55938" lon="5.92493">
        <ele>397.64</ele>
        <time>2013-07-14T07:20:43Z</time>
      </trkpt>
      <trkpt lat="45.55949" lon="5.92506">
        <ele>395.72</ele>
        <time>2013-07-14T07:20:59Z</time>
      </trkpt>
      <trkpt lat="45.55963" lon="5.92519">
        <ele>393.8</ele>
        <time>2013-07-14T07:21:17Z</time>
      </trkpt>
      <trkpt lat="45.55969" lon="5.92525">
        <ele>393.32</ele>
        <time>2013-07-14T07:21:25Z</time>
      </trkpt>
      <trkpt lat="45.5598" lon="5.92555">
        <ele>387.55</ele>
        <time>2013-07-14T07:21:46Z</time>
      </trkpt>
      <trkpt lat="45.55985" lon="5.9256">
        <ele>385.63</ele>
        <time>2013-07-14T07:22:07Z</time>
      </trkpt>
      <trkpt lat="45.56003" lon="5.9257">
        <ele>380.82</ele>
        <time>2013-07-14T07:22:29Z</time>
      </trkpt>
      <trkpt lat="45.56014" lon="5.9258">
        <ele>375.53</ele>
        <time>2013-07-14T07:22:48Z</time>
      </trkpt>
      <trkpt lat="45.56028" lon="5.92599">
        <ele>372.17</ele>
        <time>2013-07-14T07:23:06Z</time>
      </trkpt>
      <trkpt lat="45.56048" lon="5.9261">
        <ele>366.88</ele>
        <time>2013-07-14T07:23:20Z</time>
      </trkpt>
      <trkpt lat="45.56057" lon="5.92598">
        <ele>364.48</ele>
        <time>2013-07-14T07:23:31Z</time>
      </trkpt>
      <trkpt lat="45.56052" lon="5.92583">
        <ele>360.63</ele>
        <time>2013-07-14T07:23:40Z</time>
      </trkpt>
      <trkpt lat="45.56039" lon="5.9255">
        <ele>354.86</ele>
        <time>2013-07-14T07:23:57Z</time>
      </trkpt>
      <trkpt lat="45.56039" lon="5.9253">
        <ele>354.86</ele>
        <time>2013-07-14T07:24:11Z</time>
      </trkpt>
      <trkpt lat="45.56039" lon="5.92529">
        <ele>355.83</ele>
        <time>2013-07-14T07:24:17Z</time>
      </trkpt>
      <trkpt lat="45.56038" lon="5.92547">
        <ele>355.83</ele>
        <time>2013-07-14T07:24:32Z</time>
      </trkpt>
      <trkpt lat="45.56046" lon="5.92529">
        <ele>358.23</ele>
        <time>2013-07-14T07:24:45Z</time>
      </trkpt>
      <trkpt lat="45.56047" lon="5.92504">
        <ele>359.67</ele>
        <time>2013-07-14T07:25:02Z</time>
      </trkpt>
      <trkpt lat="45.56039" lon="5.92481">
        <ele>357.27</ele>
        <time>2013-07-14T07:25:17Z</time>
      </trkpt>
      <trkpt lat="45.56038" lon="5.92483">
        <ele>358.71</ele>
        <time>2013-07-14T07:25:37Z</time>
      </trkpt>
      <trkpt lat="45.56043" lon="5.92508">
        <ele>358.23</ele>
        <time>2013-07-14T07:25:56Z</time>
      </trkpt>
      <trkpt lat="45.56054" lon="5.9252">
        <ele>352.94</ele>
        <time>2013-07-14T07:26:09Z</time>
      </trkpt>
      <trkpt lat="45.56054" lon="5.92519">
        <ele>351.02</ele>
        <time>2013-07-14T07:26:27Z</time>
      </trkpt>
      <trkpt lat="45.56073" lon="5.92532">
        <ele>345.73</ele>
        <time>2013-07-14T07:26:49Z</time>
      </trkpt>
      <trkpt lat="45.56082" lon="5.92527">
        <ele>340.92</ele>
        <time>2013-07-14T07:26:58Z</time>
      </trkpt>
      <trkpt lat="45.56095" lon="5.92516">
        <ele>334.68</ele>
        <time>2013-07-14T07:27:13Z</time>
      </trkpt>
      <trkpt lat="45.56095" lon="5.92516">
        <ele>334.2</ele>
        <time>2013-07-14T07:27:14Z</time>
      </trkpt>
      <trkpt lat="45.56103" lon="5.92522">
        <ele>328.91</ele>
        <time>2013-07-14T07:27:27Z</time>
      </trkpt>
      <trkpt lat="45.56107" lon="5.92524">
        <ele>327.47</ele>
        <time>2013-07-14T07:27:31Z</time>
      </trkpt>
      <trkpt lat="45.56127" lon="5.92521">
        <ele>321.7</ele>
        <time>2013-07-14T07:27:49Z</time>
      </trkpt>
      <trkpt lat="45.56138" lon="5.92512">
        <ele>317.85</ele>
        <time>2013-07-14T07:28:01Z</time>
      </trkpt>
      <trkpt lat="45.56139" lon="5.92507">
        <ele>316.89</ele>
        <time>2013-07-14T07:28:03Z</time>
      </trkpt>
      <trkpt lat="45.56133" lon="5.92482">
        <ele>307.28</ele>
        <time>2013-07-14T07:28:15Z</time>
      </trkpt>
      <trkpt lat="45.56134" lon="5.92472">
        <ele>303.43</ele>
        <time>2013-07-14T07:28:26Z</time>
      </trkpt>
      <trkpt lat="45.56145" lon="5.92472">
        <ele>301.99</ele>
        <time>2013-07-14T07:28:33Z</time>
      </trkpt>
      <trkpt lat="45.56146" lon="5.9247">
        <ele>301.51</ele>
        <time>2013-07-14T07:28:35Z</time>
      </trkpt>
      <trkpt lat="45.56147" lon="5.92466">
        <ele>301.03</ele>
        <time>2013-07-14T07:28:37Z</time>
      </trkpt>
      <trkpt lat="45.56147" lon="5.92451">
        <ele>298.15</ele>
        <time>2013-07-14T07:28:45Z</time>
      </trkpt>
      <trkpt lat="45.56141" lon="5.92436">
        <ele>293.34</ele>
        <time>2013-07-14T07:29:03Z</time>
      </trkpt>
      <trkpt lat="45.5614" lon="5.92434">
        <ele>292.38</ele>
        <time>2013-07-14T07:29:29Z</time>
      </trkpt>
      <trkpt lat="45.5614" lon="5.92434">
        <ele>291.9</ele>
        <time>2013-07-14T07:29:47Z</time>
      </trkpt>
      <trkpt lat="45.56139" lon="5.92434">
        <ele>289.97</ele>
        <time>2013-07-14T07:30:12Z</time>
      </trkpt>
      <trkpt lat="45.56139" lon="5.92433">
        <ele>289.97</ele>
        <time>2013-07-14T07:30:36Z</time>
      </trkpt>
      <trkpt lat="45.56139" lon="5.92433">
        <ele>289.97</ele>
        <time>2013-07-14T07:30:57Z</time>
      </trkpt>
      <trkpt lat="45.56138" lon="5.92435">
        <ele>289.97</ele>
        <time>2013-07-14T07:31:13Z</time>
      </trkpt>
      <trkpt lat="45.56139" lon="5.9243">
        <ele>288.53</ele>
        <time>2013-07-14T07:31:24Z</time>
      </trkpt>
      <trkpt lat="45.56138" lon="5.92419">
        <ele>289.01</ele>
        <time>2013-07-14T07:31:30Z</time>
      </trkpt>
      <trkpt lat="45.56139" lon="5.92398">
        <ele>289.49</ele>
        <time>2013-07-14T07:31:41Z</time>
      </trkpt>
      <trkpt lat="45.56163" lon="5.92387">
        <ele>289.97</ele>
        <time>2013-07-14T07:31:59Z</time>
      </trkpt>
      <trkpt lat="45.5617" lon="5.92379">
        <ele>289.49</ele>
        <time>2013-07-14T07:32:14Z</time>
      </trkpt>
      <trkpt lat="45.56175" lon="5.92378">
        <ele>290.46</ele>
        <time>2013-07-14T07:32:17Z</time>
      </trkpt>
      <trkpt lat="45.56194" lon="5.9238">
        <ele>288.05</ele>
        <time>2013-07-14T07:32:28Z</time>
      </trkpt>
      <trkpt lat="45.56198" lon="5.92381">
        <ele>287.57</ele>
        <time>2013-07-14T07:32:32Z</time>
      </trkpt>
      <trkpt lat="45.56205" lon="5.92382">
        <ele>287.57</ele>
        <time>2013-07-14T07:32:37Z</time>
      </trkpt>
      <trkpt lat="45.56218" lon="5.92382">
        <ele>286.13</ele>
        <time>2013-07-14T07:32:48Z</time>
      </trkpt>
      <trkpt lat="45.56234" lon="5.9238">
        <ele>286.13</ele>
        <time>2013-07-14T07:32:59Z</time>
      </trkpt>
      <trkpt lat="45.56254" lon="5.92379">
        <ele>280.36</ele>
        <time>2013-07-14T07:33:16Z</time>
      </trkpt>
      <trkpt lat="45.56258" lon="5.92376">
        <ele>278.44</ele>
        <time>2013-07-14T07:33:21Z</time>
      </trkpt>
      <trkpt lat="45.56272" lon="5.92375">
        <ele>274.11</ele>
        <time>2013-07-14T07:33:34Z</time>
      </trkpt>
      <trkpt lat="45.56277" lon="5.92374">
        <ele>270.27</ele>
        <time>2013-07-14T07:33:49Z</time>
      </trkpt>
      <trkpt lat="45.56295" lon="5.92373">
        <ele>268.83</ele>
        <time>2013-07-14T07:34:02Z</time>
      </trkpt>
      <trkpt lat="45.56322" lon="5.92377">
        <ele>269.79</ele>
        <time>2013-07-14T07:34:17Z</time>
      </trkpt>
      <trkpt lat="45.56338" lon="5.92378">
        <ele>272.19</ele>
        <time>2013-07-14T07:34:29Z</time>
      </trkpt>
      <trkpt lat="45.56362" lon="5.92377">
        <ele>277</ele>
        <time>2013-07-14T07:34:45Z</time>
      </trkpt>
      <trkpt lat="45.56371" lon="5.92378">
        <ele>277.96</ele>
        <time>2013-07-14T07:34:51Z</time>
      </trkpt>
      <trkpt lat="45.56375" lon="5.92381">
        <ele>278.92</ele>
        <time>2013-07-14T07:34:54Z</time>
      </trkpt>
      <trkpt lat="45.56379" lon="5.92383">
        <ele>279.4</ele>
        <time>2013-07-14T07:34:57Z</time>
      </trkpt>
      <trkpt lat="45.56389" lon="5.92393">
        <ele>277.48</ele>
        <time>2013-07-14T07:35:09Z</time>
      </trkpt>
      <trkpt lat="45.5639" lon="5.92395">
        <ele>276.52</ele>
        <time>2013-07-14T07:35:23Z</time>
      </trkpt>
      <trkpt lat="45.56394" lon="5.924">
        <ele>275.56</ele>
        <time>2013-07-14T07:35:32Z</time>
      </trkpt>
      <trkpt lat="45.56398" lon="5.92406">
        <ele>274.59</ele>
        <time>2013-07-14T07:35:38Z</time>
      </trkpt>
      <trkpt lat="45.5638" lon="5.92391">
        <ele>320.26</ele>
        <time>2013-07-14T07:42:15Z</time>
      </trkpt>
      <trkpt lat="45.56386" lon="5.92407">
        <ele>301.03</ele>
        <time>2013-07-14T07:42:19Z</time>
      </trkpt>
      <trkpt lat="45.56395" lon="5.92419">
        <ele>297.18</ele>
        <time>2013-07-14T07:42:33Z</time>
      </trkpt>
      <trkpt lat="45.56399" lon="5.92432">
        <ele>302.95</ele>
        <time>2013-07-14T07:42:42Z</time>
      </trkpt>
      <trkpt lat="45.56397" lon="5.92446">
        <ele>293.34</ele>
        <time>2013-07-14T07:42:46Z</time>
      </trkpt>
      <trkpt lat="45.564" lon="5.92454">
        <ele>291.42</ele>
        <time>2013-07-14T07:42:49Z</time>
      </trkpt>
      <trkpt lat="45.56398" lon="5.92459">
        <ele>289.97</ele>
        <time>2013-07-14T07:42:53Z</time>
      </trkpt>
      <trkpt lat="45.56403" lon="5.92472">
        <ele>290.46</ele>
        <time>2013-07-14T07:43:07Z</time>
      </trkpt>
      <trkpt lat="45.56404" lon="5.92472">
        <ele>290.94</ele>
        <time>2013-07-14T07:43:09Z</time>
      </trkpt>
      <trkpt lat="45.56411" lon="5.92478">
        <ele>292.38</ele>
        <time>2013-07-14T07:43:13Z</time>
      </trkpt>
      <trkpt lat="45.56424" lon="5.92473">
        <ele>292.38</ele>
        <time>2013-07-14T07:43:25Z</time>
      </trkpt>
      <trkpt lat="45.56442" lon="5.92459">
        <ele>292.86</ele>
        <time>2013-07-14T07:43:42Z</time>
      </trkpt>
      <trkpt lat="45.56443" lon="5.92446">
        <ele>293.82</ele>
        <time>2013-07-14T07:43:58Z</time>
      </trkpt>
      <trkpt lat="45.56476" lon="5.9245">
        <ele>293.34</ele>
        <time>2013-07-14T07:44:16Z</time>
      </trkpt>
      <trkpt lat="45.5652" lon="5.92424">
        <ele>288.05</ele>
        <time>2013-07-14T07:44:33Z</time>
      </trkpt>
      <trkpt lat="45.56543" lon="5.9239">
        <ele>287.57</ele>
        <time>2013-07-14T07:44:55Z</time>
      </trkpt>
      <trkpt lat="45.56578" lon="5.9239">
        <ele>285.65</ele>
        <time>2013-07-14T07:45:12Z</time>
      </trkpt>
      <trkpt lat="45.56594" lon="5.92369">
        <ele>291.42</ele>
        <time>2013-07-14T07:45:28Z</time>
      </trkpt>
      <trkpt lat="45.56619" lon="5.92351">
        <ele>287.57</ele>
        <time>2013-07-14T07:45:45Z</time>
      </trkpt>
      <trkpt lat="45.56642" lon="5.92329">
        <ele>283.73</ele>
        <time>2013-07-14T07:46:03Z</time>
      </trkpt>
      <trkpt lat="45.56648" lon="5.92327">
        <ele>283.25</ele>
        <time>2013-07-14T07:46:07Z</time>
      </trkpt>
      <trkpt lat="45.5665" lon="5.92324">
        <ele>283.25</ele>
        <time>2013-07-14T07:46:09Z</time>
      </trkpt>
      <trkpt lat="45.56669" lon="5.92304">
        <ele>280.84</ele>
        <time>2013-07-14T07:46:24Z</time>
      </trkpt>
      <trkpt lat="45.56678" lon="5.92293">
        <ele>283.25</ele>
        <time>2013-07-14T07:46:37Z</time>
      </trkpt>
      <trkpt lat="45.56706" lon="5.92267">
        <ele>285.65</ele>
        <time>2013-07-14T07:46:58Z</time>
      </trkpt>
      <trkpt lat="45.56719" lon="5.9225">
        <ele>289.49</ele>
        <time>2013-07-14T07:47:16Z</time>
      </trkpt>
      <trkpt lat="45.56724" lon="5.92236">
        <ele>289.97</ele>
        <time>2013-07-14T07:47:23Z</time>
      </trkpt>
      <trkpt lat="45.56728" lon="5.92229">
        <ele>289.49</ele>
        <time>2013-07-14T07:47:26Z</time>
      </trkpt>
      <trkpt lat="45.56749" lon="5.92202">
        <ele>293.34</ele>
        <time>2013-07-14T07:47:45Z</time>
      </trkpt>
      <trkpt lat="45.56751" lon="5.92201">
        <ele>293.34</ele>
        <time>2013-07-14T07:47:46Z</time>
      </trkpt>
      <trkpt lat="45.56764" lon="5.92182">
        <ele>294.3</ele>
        <time>2013-07-14T07:48:04Z</time>
      </trkpt>
      <trkpt lat="45.56781" lon="5.92147">
        <ele>297.67</ele>
        <time>2013-07-14T07:48:17Z</time>
      </trkpt>
      <trkpt lat="45.56799" lon="5.92133">
        <ele>288.53</ele>
        <time>2013-07-14T07:48:30Z</time>
      </trkpt>
      <trkpt lat="45.56813" lon="5.92126">
        <ele>284.21</ele>
        <time>2013-07-14T07:48:41Z</time>
      </trkpt>
      <trkpt lat="45.56821" lon="5.92135">
        <ele>281.8</ele>
        <time>2013-07-14T07:48:52Z</time>
      </trkpt>
      <trkpt lat="45.56824" lon="5.92138">
        <ele>282.28</ele>
        <time>2013-07-14T07:48:55Z</time>
      </trkpt>
      <trkpt lat="45.56855" lon="5.92146">
        <ele>288.53</ele>
        <time>2013-07-14T07:49:12Z</time>
      </trkpt>
      <trkpt lat="45.56864" lon="5.92136">
        <ele>288.53</ele>
        <time>2013-07-14T07:49:19Z</time>
      </trkpt>
      <trkpt lat="45.56872" lon="5.9212">
        <ele>287.57</ele>
        <time>2013-07-14T07:49:26Z</time>
      </trkpt>
      <trkpt lat="45.56892" lon="5.92095">
        <ele>285.65</ele>
        <time>2013-07-14T07:49:41Z</time>
      </trkpt>
      <trkpt lat="45.56909" lon="5.92068">
        <ele>284.21</ele>
        <time>2013-07-14T07:49:57Z</time>
      </trkpt>
      <trkpt lat="45.56942" lon="5.92055">
        <ele>284.21</ele>
        <time>2013-07-14T07:50:15Z</time>
      </trkpt>
      <trkpt lat="45.5696" lon="5.92049">
        <ele>287.09</ele>
        <time>2013-07-14T07:50:23Z</time>
      </trkpt>
      <trkpt lat="45.56987" lon="5.9201">
        <ele>289.01</ele>
        <time>2013-07-14T07:50:41Z</time>
      </trkpt>
      <trkpt lat="45.57023" lon="5.92006">
        <ele>288.53</ele>
        <time>2013-07-14T07:50:59Z</time>
      </trkpt>
      <trkpt lat="45.57034" lon="5.91999">
        <ele>285.17</ele>
        <time>2013-07-14T07:51:16Z</time>
      </trkpt>
      <trkpt lat="45.57041" lon="5.91995">
        <ele>285.17</ele>
        <time>2013-07-14T07:51:20Z</time>
      </trkpt>
      <trkpt lat="45.57045" lon="5.91992">
        <ele>284.69</ele>
        <time>2013-07-14T07:51:22Z</time>
      </trkpt>
      <trkpt lat="45.57076" lon="5.91977">
        <ele>282.28</ele>
        <time>2013-07-14T07:51:43Z</time>
      </trkpt>
      <trkpt lat="45.57088" lon="5.91974">
        <ele>281.8</ele>
        <time>2013-07-14T07:51:55Z</time>
      </trkpt>
    </trkseg>
  </trk>
</gpx>